<?xml version="1.0" encoding="UTF-8" standalone="no" ?>
<gpx xmlns="http://www.topografix.com/GPX/1/1" xmlns:xsi="http://www.w3.org/2001/XMLSchema-instance" xsi:schemaLocation="http://www.topografix.com/GPX/1/1 http://www.topografix.com/GPX/1/1/gpx.xsd" version="1.1" creator="VisuGPX - https://www.visugpx.com">
  <metadata>
    <name>2021-09-14 Ventenac Cabardes</name>
  </metadata>
  <trk>
    <name><![CDATA[2021-09-14 Ventenac Cabardes, Rosy et Jacques,]]></name>
    <trkseg>
      <trkpt lat="43.26416" lon="2.28773">
        <ele>139.49</ele>
        <time>2021-09-14T05:45:12Z</time>
      </trkpt>
      <trkpt lat="43.26415" lon="2.28776">
        <ele>132.53</ele>
        <time>2021-09-14T05:45:56Z</time>
      </trkpt>
      <trkpt lat="43.26417" lon="2.28767">
        <ele>132.17</ele>
        <time>2021-09-14T05:47:02Z</time>
      </trkpt>
      <trkpt lat="43.26417" lon="2.28758">
        <ele>132</ele>
        <time>2021-09-14T05:47:11Z</time>
      </trkpt>
      <trkpt lat="43.26424" lon="2.28749">
        <ele>132.11</ele>
        <time>2021-09-14T05:47:17Z</time>
      </trkpt>
      <trkpt lat="43.26433" lon="2.28739">
        <ele>132.43</ele>
        <time>2021-09-14T05:47:23Z</time>
      </trkpt>
      <trkpt lat="43.26438" lon="2.28728">
        <ele>132.66</ele>
        <time>2021-09-14T05:47:28Z</time>
      </trkpt>
      <trkpt lat="43.26442" lon="2.28713">
        <ele>132.95</ele>
        <time>2021-09-14T05:47:34Z</time>
      </trkpt>
      <trkpt lat="43.26446" lon="2.287">
        <ele>133.01</ele>
        <time>2021-09-14T05:47:40Z</time>
      </trkpt>
      <trkpt lat="43.26453" lon="2.2869">
        <ele>133.26</ele>
        <time>2021-09-14T05:47:45Z</time>
      </trkpt>
      <trkpt lat="43.26464" lon="2.28689">
        <ele>133.57</ele>
        <time>2021-09-14T05:47:51Z</time>
      </trkpt>
      <trkpt lat="43.26474" lon="2.28695">
        <ele>133.81</ele>
        <time>2021-09-14T05:47:56Z</time>
      </trkpt>
      <trkpt lat="43.26483" lon="2.28702">
        <ele>133.92</ele>
        <time>2021-09-14T05:48:01Z</time>
      </trkpt>
      <trkpt lat="43.2649" lon="2.2871">
        <ele>134.01</ele>
        <time>2021-09-14T05:48:06Z</time>
      </trkpt>
      <trkpt lat="43.26498" lon="2.28717">
        <ele>134.11</ele>
        <time>2021-09-14T05:48:12Z</time>
      </trkpt>
      <trkpt lat="43.26507" lon="2.28726">
        <ele>134.29</ele>
        <time>2021-09-14T05:48:18Z</time>
      </trkpt>
      <trkpt lat="43.26517" lon="2.28734">
        <ele>134.42</ele>
        <time>2021-09-14T05:48:24Z</time>
      </trkpt>
      <trkpt lat="43.26526" lon="2.28745">
        <ele>134.73</ele>
        <time>2021-09-14T05:48:31Z</time>
      </trkpt>
      <trkpt lat="43.26534" lon="2.28755">
        <ele>135.14</ele>
        <time>2021-09-14T05:48:37Z</time>
      </trkpt>
      <trkpt lat="43.26547" lon="2.28764">
        <ele>135.51</ele>
        <time>2021-09-14T05:48:44Z</time>
      </trkpt>
      <trkpt lat="43.26562" lon="2.28772">
        <ele>135.41</ele>
        <time>2021-09-14T05:48:50Z</time>
      </trkpt>
      <trkpt lat="43.26578" lon="2.28779">
        <ele>135.22</ele>
        <time>2021-09-14T05:48:57Z</time>
      </trkpt>
      <trkpt lat="43.26589" lon="2.28784">
        <ele>135.42</ele>
        <time>2021-09-14T05:49:02Z</time>
      </trkpt>
      <trkpt lat="43.26599" lon="2.2879">
        <ele>135.57</ele>
        <time>2021-09-14T05:49:07Z</time>
      </trkpt>
      <trkpt lat="43.2661" lon="2.28799">
        <ele>135.76</ele>
        <time>2021-09-14T05:49:13Z</time>
      </trkpt>
      <trkpt lat="43.2662" lon="2.28806">
        <ele>135.99</ele>
        <time>2021-09-14T05:49:18Z</time>
      </trkpt>
      <trkpt lat="43.26631" lon="2.28812">
        <ele>136.34</ele>
        <time>2021-09-14T05:49:23Z</time>
      </trkpt>
      <trkpt lat="43.26642" lon="2.2882">
        <ele>136.89</ele>
        <time>2021-09-14T05:49:29Z</time>
      </trkpt>
      <trkpt lat="43.26652" lon="2.28826">
        <ele>137.39</ele>
        <time>2021-09-14T05:49:34Z</time>
      </trkpt>
      <trkpt lat="43.26663" lon="2.28832">
        <ele>137.85</ele>
        <time>2021-09-14T05:49:39Z</time>
      </trkpt>
      <trkpt lat="43.26673" lon="2.28837">
        <ele>138.38</ele>
        <time>2021-09-14T05:49:44Z</time>
      </trkpt>
      <trkpt lat="43.26683" lon="2.28845">
        <ele>139.16</ele>
        <time>2021-09-14T05:49:50Z</time>
      </trkpt>
      <trkpt lat="43.26694" lon="2.28851">
        <ele>139.73</ele>
        <time>2021-09-14T05:49:55Z</time>
      </trkpt>
      <trkpt lat="43.26704" lon="2.28859">
        <ele>140.18</ele>
        <time>2021-09-14T05:50:00Z</time>
      </trkpt>
      <trkpt lat="43.26714" lon="2.28865">
        <ele>140.69</ele>
        <time>2021-09-14T05:50:05Z</time>
      </trkpt>
      <trkpt lat="43.26725" lon="2.28873">
        <ele>141.47</ele>
        <time>2021-09-14T05:50:11Z</time>
      </trkpt>
      <trkpt lat="43.26737" lon="2.2888">
        <ele>142.14</ele>
        <time>2021-09-14T05:50:17Z</time>
      </trkpt>
      <trkpt lat="43.26748" lon="2.2888">
        <ele>142.63</ele>
        <time>2021-09-14T05:50:22Z</time>
      </trkpt>
      <trkpt lat="43.26755" lon="2.28871">
        <ele>143.11</ele>
        <time>2021-09-14T05:50:27Z</time>
      </trkpt>
      <trkpt lat="43.26762" lon="2.28857">
        <ele>143.35</ele>
        <time>2021-09-14T05:50:33Z</time>
      </trkpt>
      <trkpt lat="43.26768" lon="2.28847">
        <ele>143.81</ele>
        <time>2021-09-14T05:50:41Z</time>
      </trkpt>
      <trkpt lat="43.26768" lon="2.2886">
        <ele>144.45</ele>
        <time>2021-09-14T05:50:47Z</time>
      </trkpt>
      <trkpt lat="43.26765" lon="2.28875">
        <ele>144.41</ele>
        <time>2021-09-14T05:50:53Z</time>
      </trkpt>
      <trkpt lat="43.26759" lon="2.28886">
        <ele>144.4</ele>
        <time>2021-09-14T05:50:58Z</time>
      </trkpt>
      <trkpt lat="43.26754" lon="2.28899">
        <ele>144.65</ele>
        <time>2021-09-14T05:51:03Z</time>
      </trkpt>
      <trkpt lat="43.26745" lon="2.2891">
        <ele>144.93</ele>
        <time>2021-09-14T05:51:08Z</time>
      </trkpt>
      <trkpt lat="43.26738" lon="2.28922">
        <ele>145.3</ele>
        <time>2021-09-14T05:51:13Z</time>
      </trkpt>
      <trkpt lat="43.26732" lon="2.28938">
        <ele>145.34</ele>
        <time>2021-09-14T05:51:19Z</time>
      </trkpt>
      <trkpt lat="43.26729" lon="2.28954">
        <ele>145.43</ele>
        <time>2021-09-14T05:51:24Z</time>
      </trkpt>
      <trkpt lat="43.26727" lon="2.28974">
        <ele>145.83</ele>
        <time>2021-09-14T05:51:30Z</time>
      </trkpt>
      <trkpt lat="43.26725" lon="2.28988">
        <ele>146.16</ele>
        <time>2021-09-14T05:51:35Z</time>
      </trkpt>
      <trkpt lat="43.26723" lon="2.29006">
        <ele>146.4</ele>
        <time>2021-09-14T05:51:40Z</time>
      </trkpt>
      <trkpt lat="43.26721" lon="2.29023">
        <ele>146.55</ele>
        <time>2021-09-14T05:51:45Z</time>
      </trkpt>
      <trkpt lat="43.2672" lon="2.29037">
        <ele>146.88</ele>
        <time>2021-09-14T05:51:49Z</time>
      </trkpt>
      <trkpt lat="43.26716" lon="2.29051">
        <ele>147.08</ele>
        <time>2021-09-14T05:51:53Z</time>
      </trkpt>
      <trkpt lat="43.26713" lon="2.29066">
        <ele>147.16</ele>
        <time>2021-09-14T05:51:57Z</time>
      </trkpt>
      <trkpt lat="43.26709" lon="2.2908">
        <ele>147.12</ele>
        <time>2021-09-14T05:52:01Z</time>
      </trkpt>
      <trkpt lat="43.26703" lon="2.29094">
        <ele>146.89</ele>
        <time>2021-09-14T05:52:06Z</time>
      </trkpt>
      <trkpt lat="43.267" lon="2.29108">
        <ele>146.77</ele>
        <time>2021-09-14T05:52:10Z</time>
      </trkpt>
      <trkpt lat="43.26695" lon="2.2912">
        <ele>146.75</ele>
        <time>2021-09-14T05:52:14Z</time>
      </trkpt>
      <trkpt lat="43.26692" lon="2.29132">
        <ele>146.86</ele>
        <time>2021-09-14T05:52:18Z</time>
      </trkpt>
      <trkpt lat="43.26686" lon="2.29144">
        <ele>147.09</ele>
        <time>2021-09-14T05:52:23Z</time>
      </trkpt>
      <trkpt lat="43.26682" lon="2.29159">
        <ele>147.4</ele>
        <time>2021-09-14T05:52:28Z</time>
      </trkpt>
      <trkpt lat="43.26676" lon="2.2917">
        <ele>147.67</ele>
        <time>2021-09-14T05:52:33Z</time>
      </trkpt>
      <trkpt lat="43.26679" lon="2.29184">
        <ele>148.18</ele>
        <time>2021-09-14T05:52:40Z</time>
      </trkpt>
      <trkpt lat="43.26685" lon="2.29197">
        <ele>148.88</ele>
        <time>2021-09-14T05:52:47Z</time>
      </trkpt>
      <trkpt lat="43.26692" lon="2.29205">
        <ele>150.93</ele>
        <time>2021-09-14T05:52:59Z</time>
      </trkpt>
      <trkpt lat="43.267" lon="2.29217">
        <ele>152.26</ele>
        <time>2021-09-14T05:53:15Z</time>
      </trkpt>
      <trkpt lat="43.26712" lon="2.29237">
        <ele>154.42</ele>
        <time>2021-09-14T05:53:29Z</time>
      </trkpt>
      <trkpt lat="43.26742" lon="2.29267">
        <ele>158.11</ele>
        <time>2021-09-14T05:53:54Z</time>
      </trkpt>
      <trkpt lat="43.26764" lon="2.29272">
        <ele>160.68</ele>
        <time>2021-09-14T05:54:08Z</time>
      </trkpt>
      <trkpt lat="43.26793" lon="2.2928">
        <ele>162.44</ele>
        <time>2021-09-14T05:54:22Z</time>
      </trkpt>
      <trkpt lat="43.26809" lon="2.29286">
        <ele>163.43</ele>
        <time>2021-09-14T05:54:33Z</time>
      </trkpt>
      <trkpt lat="43.26829" lon="2.29291">
        <ele>164.57</ele>
        <time>2021-09-14T05:54:46Z</time>
      </trkpt>
      <trkpt lat="43.26919" lon="2.29343">
        <ele>168.29</ele>
        <time>2021-09-14T05:55:41Z</time>
      </trkpt>
      <trkpt lat="43.26937" lon="2.2936">
        <ele>168.4</ele>
        <time>2021-09-14T05:55:58Z</time>
      </trkpt>
      <trkpt lat="43.26936" lon="2.29389">
        <ele>167.29</ele>
        <time>2021-09-14T05:56:12Z</time>
      </trkpt>
      <trkpt lat="43.26919" lon="2.29407">
        <ele>166.41</ele>
        <time>2021-09-14T05:56:23Z</time>
      </trkpt>
      <trkpt lat="43.26897" lon="2.29426">
        <ele>165.17</ele>
        <time>2021-09-14T05:56:38Z</time>
      </trkpt>
      <trkpt lat="43.26887" lon="2.2945">
        <ele>164.28</ele>
        <time>2021-09-14T05:56:50Z</time>
      </trkpt>
      <trkpt lat="43.26871" lon="2.29459">
        <ele>162.74</ele>
        <time>2021-09-14T05:57:02Z</time>
      </trkpt>
      <trkpt lat="43.26839" lon="2.29466">
        <ele>160.2</ele>
        <time>2021-09-14T05:57:15Z</time>
      </trkpt>
      <trkpt lat="43.26824" lon="2.29493">
        <ele>159.08</ele>
        <time>2021-09-14T05:57:25Z</time>
      </trkpt>
      <trkpt lat="43.26816" lon="2.29523">
        <ele>157.83</ele>
        <time>2021-09-14T05:57:36Z</time>
      </trkpt>
      <trkpt lat="43.26807" lon="2.29541">
        <ele>157.04</ele>
        <time>2021-09-14T05:57:41Z</time>
      </trkpt>
      <trkpt lat="43.26799" lon="2.29556">
        <ele>156.3</ele>
        <time>2021-09-14T05:57:46Z</time>
      </trkpt>
      <trkpt lat="43.26794" lon="2.29574">
        <ele>154.72</ele>
        <time>2021-09-14T05:57:53Z</time>
      </trkpt>
      <trkpt lat="43.26811" lon="2.2966">
        <ele>148.1</ele>
        <time>2021-09-14T05:58:32Z</time>
      </trkpt>
      <trkpt lat="43.2691" lon="2.2976">
        <ele>153.19</ele>
        <time>2021-09-14T05:59:39Z</time>
      </trkpt>
      <trkpt lat="43.26972" lon="2.29807">
        <ele>157.74</ele>
        <time>2021-09-14T06:00:23Z</time>
      </trkpt>
      <trkpt lat="43.27001" lon="2.29827">
        <ele>161.38</ele>
        <time>2021-09-14T06:00:49Z</time>
      </trkpt>
      <trkpt lat="43.26992" lon="2.2988">
        <ele>160.59</ele>
        <time>2021-09-14T06:01:20Z</time>
      </trkpt>
      <trkpt lat="43.27012" lon="2.29994">
        <ele>162.17</ele>
        <time>2021-09-14T06:02:00Z</time>
      </trkpt>
      <trkpt lat="43.27025" lon="2.30012">
        <ele>161.77</ele>
        <time>2021-09-14T06:02:18Z</time>
      </trkpt>
      <trkpt lat="43.27035" lon="2.30019">
        <ele>162.47</ele>
        <time>2021-09-14T06:02:28Z</time>
      </trkpt>
      <trkpt lat="43.27067" lon="2.30016">
        <ele>163.95</ele>
        <time>2021-09-14T06:02:47Z</time>
      </trkpt>
      <trkpt lat="43.27074" lon="2.30017">
        <ele>164.07</ele>
        <time>2021-09-14T06:02:49Z</time>
      </trkpt>
      <trkpt lat="43.27094" lon="2.30018">
        <ele>164.95</ele>
        <time>2021-09-14T06:02:55Z</time>
      </trkpt>
      <trkpt lat="43.27109" lon="2.30014">
        <ele>165.24</ele>
        <time>2021-09-14T06:03:07Z</time>
      </trkpt>
      <trkpt lat="43.27121" lon="2.30012">
        <ele>165.19</ele>
        <time>2021-09-14T06:03:23Z</time>
      </trkpt>
      <trkpt lat="43.27133" lon="2.30008">
        <ele>165.78</ele>
        <time>2021-09-14T06:03:31Z</time>
      </trkpt>
      <trkpt lat="43.27146" lon="2.30003">
        <ele>166.95</ele>
        <time>2021-09-14T06:03:39Z</time>
      </trkpt>
      <trkpt lat="43.27161" lon="2.29996">
        <ele>168.26</ele>
        <time>2021-09-14T06:03:48Z</time>
      </trkpt>
      <trkpt lat="43.27178" lon="2.29992">
        <ele>169.03</ele>
        <time>2021-09-14T06:03:55Z</time>
      </trkpt>
      <trkpt lat="43.27191" lon="2.29991">
        <ele>169.71</ele>
        <time>2021-09-14T06:04:01Z</time>
      </trkpt>
      <trkpt lat="43.27203" lon="2.29992">
        <ele>170.49</ele>
        <time>2021-09-14T06:04:07Z</time>
      </trkpt>
      <trkpt lat="43.27218" lon="2.29988">
        <ele>171.31</ele>
        <time>2021-09-14T06:04:13Z</time>
      </trkpt>
      <trkpt lat="43.27235" lon="2.29985">
        <ele>171.82</ele>
        <time>2021-09-14T06:04:21Z</time>
      </trkpt>
      <trkpt lat="43.27247" lon="2.29981">
        <ele>172.16</ele>
        <time>2021-09-14T06:04:26Z</time>
      </trkpt>
      <trkpt lat="43.27259" lon="2.29978">
        <ele>172.37</ele>
        <time>2021-09-14T06:04:30Z</time>
      </trkpt>
      <trkpt lat="43.2727" lon="2.29975">
        <ele>172.41</ele>
        <time>2021-09-14T06:04:35Z</time>
      </trkpt>
      <trkpt lat="43.27283" lon="2.29973">
        <ele>172.5</ele>
        <time>2021-09-14T06:04:45Z</time>
      </trkpt>
      <trkpt lat="43.27295" lon="2.29975">
        <ele>172.54</ele>
        <time>2021-09-14T06:04:52Z</time>
      </trkpt>
      <trkpt lat="43.27319" lon="2.29974">
        <ele>172.52</ele>
        <time>2021-09-14T06:05:01Z</time>
      </trkpt>
      <trkpt lat="43.27335" lon="2.29976">
        <ele>172.7</ele>
        <time>2021-09-14T06:05:06Z</time>
      </trkpt>
      <trkpt lat="43.27349" lon="2.29979">
        <ele>172.93</ele>
        <time>2021-09-14T06:05:11Z</time>
      </trkpt>
      <trkpt lat="43.27362" lon="2.29981">
        <ele>173.26</ele>
        <time>2021-09-14T06:05:16Z</time>
      </trkpt>
      <trkpt lat="43.27375" lon="2.29983">
        <ele>173.56</ele>
        <time>2021-09-14T06:05:21Z</time>
      </trkpt>
      <trkpt lat="43.27387" lon="2.29984">
        <ele>173.84</ele>
        <time>2021-09-14T06:05:26Z</time>
      </trkpt>
      <trkpt lat="43.27401" lon="2.29987">
        <ele>174.02</ele>
        <time>2021-09-14T06:05:31Z</time>
      </trkpt>
      <trkpt lat="43.27414" lon="2.29989">
        <ele>174.17</ele>
        <time>2021-09-14T06:05:36Z</time>
      </trkpt>
      <trkpt lat="43.27427" lon="2.29991">
        <ele>174.2</ele>
        <time>2021-09-14T06:05:41Z</time>
      </trkpt>
      <trkpt lat="43.27438" lon="2.29993">
        <ele>174.2</ele>
        <time>2021-09-14T06:05:46Z</time>
      </trkpt>
      <trkpt lat="43.2745" lon="2.29995">
        <ele>174.22</ele>
        <time>2021-09-14T06:05:52Z</time>
      </trkpt>
      <trkpt lat="43.27462" lon="2.29995">
        <ele>174.32</ele>
        <time>2021-09-14T06:05:58Z</time>
      </trkpt>
      <trkpt lat="43.27474" lon="2.29994">
        <ele>174.27</ele>
        <time>2021-09-14T06:06:04Z</time>
      </trkpt>
      <trkpt lat="43.27488" lon="2.29995">
        <ele>174.2</ele>
        <time>2021-09-14T06:06:10Z</time>
      </trkpt>
      <trkpt lat="43.27499" lon="2.29996">
        <ele>174.15</ele>
        <time>2021-09-14T06:06:16Z</time>
      </trkpt>
      <trkpt lat="43.27512" lon="2.29993">
        <ele>174.48</ele>
        <time>2021-09-14T06:06:23Z</time>
      </trkpt>
      <trkpt lat="43.27526" lon="2.29988">
        <ele>174.77</ele>
        <time>2021-09-14T06:06:29Z</time>
      </trkpt>
      <trkpt lat="43.27543" lon="2.29982">
        <ele>175.01</ele>
        <time>2021-09-14T06:06:34Z</time>
      </trkpt>
      <trkpt lat="43.27558" lon="2.29978">
        <ele>175.26</ele>
        <time>2021-09-14T06:06:40Z</time>
      </trkpt>
      <trkpt lat="43.27568" lon="2.29974">
        <ele>175.5</ele>
        <time>2021-09-14T06:06:45Z</time>
      </trkpt>
      <trkpt lat="43.27579" lon="2.29972">
        <ele>176.01</ele>
        <time>2021-09-14T06:06:50Z</time>
      </trkpt>
      <trkpt lat="43.2759" lon="2.29968">
        <ele>176.53</ele>
        <time>2021-09-14T06:06:56Z</time>
      </trkpt>
      <trkpt lat="43.27609" lon="2.29963">
        <ele>176.95</ele>
        <time>2021-09-14T06:07:02Z</time>
      </trkpt>
      <trkpt lat="43.27623" lon="2.29958">
        <ele>177.4</ele>
        <time>2021-09-14T06:07:07Z</time>
      </trkpt>
      <trkpt lat="43.27634" lon="2.29953">
        <ele>177.76</ele>
        <time>2021-09-14T06:07:12Z</time>
      </trkpt>
      <trkpt lat="43.27647" lon="2.29947">
        <ele>178.26</ele>
        <time>2021-09-14T06:07:18Z</time>
      </trkpt>
      <trkpt lat="43.2766" lon="2.2994">
        <ele>178.78</ele>
        <time>2021-09-14T06:07:23Z</time>
      </trkpt>
      <trkpt lat="43.27671" lon="2.29934">
        <ele>179.05</ele>
        <time>2021-09-14T06:07:28Z</time>
      </trkpt>
      <trkpt lat="43.27682" lon="2.29928">
        <ele>179.69</ele>
        <time>2021-09-14T06:07:33Z</time>
      </trkpt>
      <trkpt lat="43.27691" lon="2.29925">
        <ele>180.24</ele>
        <time>2021-09-14T06:07:38Z</time>
      </trkpt>
      <trkpt lat="43.27703" lon="2.29921">
        <ele>180.72</ele>
        <time>2021-09-14T06:07:43Z</time>
      </trkpt>
      <trkpt lat="43.27717" lon="2.29916">
        <ele>181.52</ele>
        <time>2021-09-14T06:07:49Z</time>
      </trkpt>
      <trkpt lat="43.27731" lon="2.29911">
        <ele>181.89</ele>
        <time>2021-09-14T06:07:54Z</time>
      </trkpt>
      <trkpt lat="43.27741" lon="2.29905">
        <ele>182.34</ele>
        <time>2021-09-14T06:07:59Z</time>
      </trkpt>
      <trkpt lat="43.2775" lon="2.29897">
        <ele>182.85</ele>
        <time>2021-09-14T06:08:05Z</time>
      </trkpt>
      <trkpt lat="43.27759" lon="2.29887">
        <ele>183.32</ele>
        <time>2021-09-14T06:08:10Z</time>
      </trkpt>
      <trkpt lat="43.27767" lon="2.29879">
        <ele>183.87</ele>
        <time>2021-09-14T06:08:15Z</time>
      </trkpt>
      <trkpt lat="43.27779" lon="2.29872">
        <ele>184.92</ele>
        <time>2021-09-14T06:08:21Z</time>
      </trkpt>
      <trkpt lat="43.27789" lon="2.29862">
        <ele>185.5</ele>
        <time>2021-09-14T06:08:27Z</time>
      </trkpt>
      <trkpt lat="43.27799" lon="2.29856">
        <ele>186.24</ele>
        <time>2021-09-14T06:08:32Z</time>
      </trkpt>
      <trkpt lat="43.27813" lon="2.2985">
        <ele>186.6</ele>
        <time>2021-09-14T06:08:37Z</time>
      </trkpt>
      <trkpt lat="43.27825" lon="2.29845">
        <ele>186.8</ele>
        <time>2021-09-14T06:08:42Z</time>
      </trkpt>
      <trkpt lat="43.27837" lon="2.29839">
        <ele>187.06</ele>
        <time>2021-09-14T06:08:47Z</time>
      </trkpt>
      <trkpt lat="43.27848" lon="2.29831">
        <ele>187.46</ele>
        <time>2021-09-14T06:08:58Z</time>
      </trkpt>
      <trkpt lat="43.27859" lon="2.29824">
        <ele>187.3</ele>
        <time>2021-09-14T06:09:07Z</time>
      </trkpt>
      <trkpt lat="43.27867" lon="2.29812">
        <ele>186.79</ele>
        <time>2021-09-14T06:09:17Z</time>
      </trkpt>
      <trkpt lat="43.27869" lon="2.29799">
        <ele>186.56</ele>
        <time>2021-09-14T06:09:30Z</time>
      </trkpt>
      <trkpt lat="43.27871" lon="2.29787">
        <ele>186.48</ele>
        <time>2021-09-14T06:09:39Z</time>
      </trkpt>
      <trkpt lat="43.27868" lon="2.29769">
        <ele>186.19</ele>
        <time>2021-09-14T06:09:50Z</time>
      </trkpt>
      <trkpt lat="43.27862" lon="2.2975">
        <ele>185.94</ele>
        <time>2021-09-14T06:10:00Z</time>
      </trkpt>
      <trkpt lat="43.27851" lon="2.29728">
        <ele>185.92</ele>
        <time>2021-09-14T06:10:01Z</time>
      </trkpt>
      <trkpt lat="43.27846" lon="2.29706">
        <ele>185.76</ele>
        <time>2021-09-14T06:10:06Z</time>
      </trkpt>
      <trkpt lat="43.27853" lon="2.29693">
        <ele>185.08</ele>
        <time>2021-09-14T06:10:12Z</time>
      </trkpt>
      <trkpt lat="43.27863" lon="2.29682">
        <ele>183.5</ele>
        <time>2021-09-14T06:10:20Z</time>
      </trkpt>
      <trkpt lat="43.27873" lon="2.29669">
        <ele>181.81</ele>
        <time>2021-09-14T06:10:27Z</time>
      </trkpt>
      <trkpt lat="43.2788" lon="2.29656">
        <ele>180.63</ele>
        <time>2021-09-14T06:10:32Z</time>
      </trkpt>
      <trkpt lat="43.27887" lon="2.29642">
        <ele>179.28</ele>
        <time>2021-09-14T06:10:37Z</time>
      </trkpt>
      <trkpt lat="43.27897" lon="2.29631">
        <ele>177.06</ele>
        <time>2021-09-14T06:10:43Z</time>
      </trkpt>
      <trkpt lat="43.27906" lon="2.29619">
        <ele>175.65</ele>
        <time>2021-09-14T06:10:49Z</time>
      </trkpt>
      <trkpt lat="43.27917" lon="2.296">
        <ele>173.78</ele>
        <time>2021-09-14T06:10:58Z</time>
      </trkpt>
      <trkpt lat="43.27931" lon="2.29586">
        <ele>172.73</ele>
        <time>2021-09-14T06:11:05Z</time>
      </trkpt>
      <trkpt lat="43.27944" lon="2.29568">
        <ele>171.67</ele>
        <time>2021-09-14T06:11:13Z</time>
      </trkpt>
      <trkpt lat="43.27955" lon="2.29553">
        <ele>171.24</ele>
        <time>2021-09-14T06:11:20Z</time>
      </trkpt>
      <trkpt lat="43.27969" lon="2.29527">
        <ele>171.01</ele>
        <time>2021-09-14T06:11:31Z</time>
      </trkpt>
      <trkpt lat="43.27979" lon="2.29499">
        <ele>170.61</ele>
        <time>2021-09-14T06:11:38Z</time>
      </trkpt>
      <trkpt lat="43.2798" lon="2.2946">
        <ele>169.82</ele>
        <time>2021-09-14T06:11:47Z</time>
      </trkpt>
      <trkpt lat="43.27976" lon="2.29427">
        <ele>169.27</ele>
        <time>2021-09-14T06:11:57Z</time>
      </trkpt>
      <trkpt lat="43.2797" lon="2.29403">
        <ele>169.08</ele>
        <time>2021-09-14T06:12:06Z</time>
      </trkpt>
      <trkpt lat="43.27968" lon="2.29376">
        <ele>168.81</ele>
        <time>2021-09-14T06:12:13Z</time>
      </trkpt>
      <trkpt lat="43.27961" lon="2.29355">
        <ele>167.15</ele>
        <time>2021-09-14T06:12:26Z</time>
      </trkpt>
      <trkpt lat="43.2796" lon="2.2932">
        <ele>166.34</ele>
        <time>2021-09-14T06:13:04Z</time>
      </trkpt>
      <trkpt lat="43.27957" lon="2.29309">
        <ele>165.86</ele>
        <time>2021-09-14T06:13:38Z</time>
      </trkpt>
      <trkpt lat="43.27953" lon="2.29293">
        <ele>164.47</ele>
        <time>2021-09-14T06:13:46Z</time>
      </trkpt>
      <trkpt lat="43.27949" lon="2.29277">
        <ele>162.94</ele>
        <time>2021-09-14T06:13:53Z</time>
      </trkpt>
      <trkpt lat="43.27944" lon="2.29258">
        <ele>161.31</ele>
        <time>2021-09-14T06:13:59Z</time>
      </trkpt>
      <trkpt lat="43.27939" lon="2.29242">
        <ele>159.81</ele>
        <time>2021-09-14T06:14:04Z</time>
      </trkpt>
      <trkpt lat="43.27935" lon="2.29226">
        <ele>158.04</ele>
        <time>2021-09-14T06:14:09Z</time>
      </trkpt>
      <trkpt lat="43.27929" lon="2.29213">
        <ele>156.69</ele>
        <time>2021-09-14T06:14:14Z</time>
      </trkpt>
      <trkpt lat="43.27921" lon="2.29195">
        <ele>154.86</ele>
        <time>2021-09-14T06:14:22Z</time>
      </trkpt>
      <trkpt lat="43.27922" lon="2.29167">
        <ele>153.31</ele>
        <time>2021-09-14T06:14:31Z</time>
      </trkpt>
      <trkpt lat="43.27917" lon="2.29143">
        <ele>152.13</ele>
        <time>2021-09-14T06:14:38Z</time>
      </trkpt>
      <trkpt lat="43.27913" lon="2.29115">
        <ele>150.5</ele>
        <time>2021-09-14T06:14:46Z</time>
      </trkpt>
      <trkpt lat="43.27908" lon="2.29089">
        <ele>148.87</ele>
        <time>2021-09-14T06:14:54Z</time>
      </trkpt>
      <trkpt lat="43.27903" lon="2.29068">
        <ele>147.13</ele>
        <time>2021-09-14T06:15:00Z</time>
      </trkpt>
      <trkpt lat="43.27901" lon="2.29053">
        <ele>146.09</ele>
        <time>2021-09-14T06:15:05Z</time>
      </trkpt>
      <trkpt lat="43.27901" lon="2.29035">
        <ele>144.93</ele>
        <time>2021-09-14T06:15:11Z</time>
      </trkpt>
      <trkpt lat="43.27898" lon="2.29017">
        <ele>143.55</ele>
        <time>2021-09-14T06:15:16Z</time>
      </trkpt>
      <trkpt lat="43.27894" lon="2.28995">
        <ele>141.71</ele>
        <time>2021-09-14T06:15:22Z</time>
      </trkpt>
      <trkpt lat="43.27891" lon="2.28976">
        <ele>140.55</ele>
        <time>2021-09-14T06:15:27Z</time>
      </trkpt>
      <trkpt lat="43.2789" lon="2.28959">
        <ele>139.08</ele>
        <time>2021-09-14T06:15:43Z</time>
      </trkpt>
      <trkpt lat="43.27889" lon="2.28942">
        <ele>138.58</ele>
        <time>2021-09-14T06:15:55Z</time>
      </trkpt>
      <trkpt lat="43.27884" lon="2.28914">
        <ele>137.93</ele>
        <time>2021-09-14T06:16:08Z</time>
      </trkpt>
      <trkpt lat="43.27876" lon="2.28883">
        <ele>138.03</ele>
        <time>2021-09-14T06:16:19Z</time>
      </trkpt>
      <trkpt lat="43.27893" lon="2.28842">
        <ele>141.49</ele>
        <time>2021-09-14T06:16:41Z</time>
      </trkpt>
      <trkpt lat="43.279" lon="2.28839">
        <ele>143.17</ele>
        <time>2021-09-14T06:16:54Z</time>
      </trkpt>
      <trkpt lat="43.27904" lon="2.28829">
        <ele>144.53</ele>
        <time>2021-09-14T06:17:05Z</time>
      </trkpt>
      <trkpt lat="43.27919" lon="2.28826">
        <ele>145.11</ele>
        <time>2021-09-14T06:17:11Z</time>
      </trkpt>
      <trkpt lat="43.27945" lon="2.28822">
        <ele>145.61</ele>
        <time>2021-09-14T06:17:16Z</time>
      </trkpt>
      <trkpt lat="43.27957" lon="2.28816">
        <ele>146.11</ele>
        <time>2021-09-14T06:17:21Z</time>
      </trkpt>
      <trkpt lat="43.27965" lon="2.28806">
        <ele>146.57</ele>
        <time>2021-09-14T06:17:25Z</time>
      </trkpt>
      <trkpt lat="43.27971" lon="2.28792">
        <ele>146.84</ele>
        <time>2021-09-14T06:17:30Z</time>
      </trkpt>
      <trkpt lat="43.27978" lon="2.2878">
        <ele>147.16</ele>
        <time>2021-09-14T06:17:35Z</time>
      </trkpt>
      <trkpt lat="43.27984" lon="2.28767">
        <ele>147.28</ele>
        <time>2021-09-14T06:17:40Z</time>
      </trkpt>
      <trkpt lat="43.2799" lon="2.28752">
        <ele>147.48</ele>
        <time>2021-09-14T06:17:45Z</time>
      </trkpt>
      <trkpt lat="43.27992" lon="2.28746">
        <ele>147.49</ele>
        <time>2021-09-14T06:17:47Z</time>
      </trkpt>
      <trkpt lat="43.27996" lon="2.28738">
        <ele>147.55</ele>
        <time>2021-09-14T06:17:50Z</time>
      </trkpt>
      <trkpt lat="43.28002" lon="2.28725">
        <ele>147.45</ele>
        <time>2021-09-14T06:17:55Z</time>
      </trkpt>
      <trkpt lat="43.28007" lon="2.28711">
        <ele>147.49</ele>
        <time>2021-09-14T06:18:00Z</time>
      </trkpt>
      <trkpt lat="43.28013" lon="2.28698">
        <ele>147.74</ele>
        <time>2021-09-14T06:18:05Z</time>
      </trkpt>
      <trkpt lat="43.28017" lon="2.28682">
        <ele>147.9</ele>
        <time>2021-09-14T06:18:10Z</time>
      </trkpt>
      <trkpt lat="43.28022" lon="2.28666">
        <ele>147.77</ele>
        <time>2021-09-14T06:18:15Z</time>
      </trkpt>
      <trkpt lat="43.28025" lon="2.2865">
        <ele>147.49</ele>
        <time>2021-09-14T06:18:20Z</time>
      </trkpt>
      <trkpt lat="43.28027" lon="2.28632">
        <ele>147.09</ele>
        <time>2021-09-14T06:18:25Z</time>
      </trkpt>
      <trkpt lat="43.28029" lon="2.28615">
        <ele>146.44</ele>
        <time>2021-09-14T06:18:30Z</time>
      </trkpt>
      <trkpt lat="43.28032" lon="2.28595">
        <ele>145.6</ele>
        <time>2021-09-14T06:18:35Z</time>
      </trkpt>
      <trkpt lat="43.28038" lon="2.2858">
        <ele>144.52</ele>
        <time>2021-09-14T06:18:40Z</time>
      </trkpt>
      <trkpt lat="43.28044" lon="2.28566">
        <ele>143.5</ele>
        <time>2021-09-14T06:18:45Z</time>
      </trkpt>
      <trkpt lat="43.2805" lon="2.28556">
        <ele>142.87</ele>
        <time>2021-09-14T06:18:50Z</time>
      </trkpt>
      <trkpt lat="43.28063" lon="2.28537">
        <ele>142.75</ele>
        <time>2021-09-14T06:19:01Z</time>
      </trkpt>
      <trkpt lat="43.28095" lon="2.28507">
        <ele>145.39</ele>
        <time>2021-09-14T06:19:17Z</time>
      </trkpt>
      <trkpt lat="43.28108" lon="2.28488">
        <ele>146.39</ele>
        <time>2021-09-14T06:19:25Z</time>
      </trkpt>
      <trkpt lat="43.2812" lon="2.28476">
        <ele>147.01</ele>
        <time>2021-09-14T06:19:31Z</time>
      </trkpt>
      <trkpt lat="43.28133" lon="2.28463">
        <ele>147.45</ele>
        <time>2021-09-14T06:19:37Z</time>
      </trkpt>
      <trkpt lat="43.28142" lon="2.28451">
        <ele>148.12</ele>
        <time>2021-09-14T06:19:43Z</time>
      </trkpt>
      <trkpt lat="43.28153" lon="2.2844">
        <ele>148.8</ele>
        <time>2021-09-14T06:19:49Z</time>
      </trkpt>
      <trkpt lat="43.28171" lon="2.28425">
        <ele>150.41</ele>
        <time>2021-09-14T06:20:01Z</time>
      </trkpt>
      <trkpt lat="43.28189" lon="2.28423">
        <ele>152.33</ele>
        <time>2021-09-14T06:20:12Z</time>
      </trkpt>
      <trkpt lat="43.282" lon="2.28421">
        <ele>153.34</ele>
        <time>2021-09-14T06:20:18Z</time>
      </trkpt>
      <trkpt lat="43.28212" lon="2.28413">
        <ele>154.46</ele>
        <time>2021-09-14T06:20:26Z</time>
      </trkpt>
      <trkpt lat="43.28221" lon="2.2841">
        <ele>155.23</ele>
        <time>2021-09-14T06:20:32Z</time>
      </trkpt>
      <trkpt lat="43.28233" lon="2.28408">
        <ele>155.78</ele>
        <time>2021-09-14T06:20:38Z</time>
      </trkpt>
      <trkpt lat="43.28244" lon="2.28398">
        <ele>156.15</ele>
        <time>2021-09-14T06:20:44Z</time>
      </trkpt>
      <trkpt lat="43.28259" lon="2.28385">
        <ele>156.99</ele>
        <time>2021-09-14T06:20:57Z</time>
      </trkpt>
      <trkpt lat="43.28269" lon="2.28382">
        <ele>157.65</ele>
        <time>2021-09-14T06:21:03Z</time>
      </trkpt>
      <trkpt lat="43.28281" lon="2.2838">
        <ele>158.34</ele>
        <time>2021-09-14T06:21:09Z</time>
      </trkpt>
      <trkpt lat="43.28294" lon="2.28378">
        <ele>159</ele>
        <time>2021-09-14T06:21:17Z</time>
      </trkpt>
      <trkpt lat="43.28304" lon="2.28377">
        <ele>159.49</ele>
        <time>2021-09-14T06:21:23Z</time>
      </trkpt>
      <trkpt lat="43.28314" lon="2.28374">
        <ele>159.86</ele>
        <time>2021-09-14T06:21:29Z</time>
      </trkpt>
      <trkpt lat="43.28326" lon="2.28371">
        <ele>160.59</ele>
        <time>2021-09-14T06:21:35Z</time>
      </trkpt>
      <trkpt lat="43.28339" lon="2.28368">
        <ele>161.18</ele>
        <time>2021-09-14T06:21:42Z</time>
      </trkpt>
      <trkpt lat="43.28352" lon="2.28362">
        <ele>161.59</ele>
        <time>2021-09-14T06:21:48Z</time>
      </trkpt>
      <trkpt lat="43.28364" lon="2.28356">
        <ele>161.79</ele>
        <time>2021-09-14T06:21:53Z</time>
      </trkpt>
      <trkpt lat="43.28373" lon="2.28348">
        <ele>162.11</ele>
        <time>2021-09-14T06:21:58Z</time>
      </trkpt>
      <trkpt lat="43.28383" lon="2.2834">
        <ele>162.24</ele>
        <time>2021-09-14T06:22:03Z</time>
      </trkpt>
      <trkpt lat="43.28392" lon="2.28332">
        <ele>162.45</ele>
        <time>2021-09-14T06:22:08Z</time>
      </trkpt>
      <trkpt lat="43.28402" lon="2.28321">
        <ele>162.85</ele>
        <time>2021-09-14T06:22:13Z</time>
      </trkpt>
      <trkpt lat="43.28409" lon="2.2831">
        <ele>163.1</ele>
        <time>2021-09-14T06:22:18Z</time>
      </trkpt>
      <trkpt lat="43.28418" lon="2.28299">
        <ele>163.43</ele>
        <time>2021-09-14T06:22:23Z</time>
      </trkpt>
      <trkpt lat="43.28425" lon="2.28287">
        <ele>163.66</ele>
        <time>2021-09-14T06:22:27Z</time>
      </trkpt>
      <trkpt lat="43.28432" lon="2.28277">
        <ele>163.8</ele>
        <time>2021-09-14T06:22:31Z</time>
      </trkpt>
      <trkpt lat="43.2844" lon="2.28264">
        <ele>163.96</ele>
        <time>2021-09-14T06:22:36Z</time>
      </trkpt>
      <trkpt lat="43.28447" lon="2.28251">
        <ele>164.21</ele>
        <time>2021-09-14T06:22:41Z</time>
      </trkpt>
      <trkpt lat="43.28455" lon="2.28239">
        <ele>164.33</ele>
        <time>2021-09-14T06:22:46Z</time>
      </trkpt>
      <trkpt lat="43.28463" lon="2.28227">
        <ele>164.36</ele>
        <time>2021-09-14T06:22:51Z</time>
      </trkpt>
      <trkpt lat="43.2847" lon="2.28216">
        <ele>164.63</ele>
        <time>2021-09-14T06:22:56Z</time>
      </trkpt>
      <trkpt lat="43.28478" lon="2.28206">
        <ele>164.85</ele>
        <time>2021-09-14T06:23:02Z</time>
      </trkpt>
      <trkpt lat="43.28488" lon="2.28195">
        <ele>165.07</ele>
        <time>2021-09-14T06:23:08Z</time>
      </trkpt>
      <trkpt lat="43.28496" lon="2.28183">
        <ele>165.12</ele>
        <time>2021-09-14T06:23:13Z</time>
      </trkpt>
      <trkpt lat="43.28505" lon="2.28165">
        <ele>165.58</ele>
        <time>2021-09-14T06:23:22Z</time>
      </trkpt>
      <trkpt lat="43.28515" lon="2.28153">
        <ele>166.6</ele>
        <time>2021-09-14T06:23:36Z</time>
      </trkpt>
      <trkpt lat="43.28522" lon="2.28156">
        <ele>167.03</ele>
        <time>2021-09-14T06:23:49Z</time>
      </trkpt>
      <trkpt lat="43.28533" lon="2.28163">
        <ele>167.28</ele>
        <time>2021-09-14T06:23:55Z</time>
      </trkpt>
      <trkpt lat="43.28544" lon="2.28166">
        <ele>167.63</ele>
        <time>2021-09-14T06:24:00Z</time>
      </trkpt>
      <trkpt lat="43.28554" lon="2.28166">
        <ele>168.18</ele>
        <time>2021-09-14T06:24:06Z</time>
      </trkpt>
      <trkpt lat="43.28566" lon="2.28164">
        <ele>168.72</ele>
        <time>2021-09-14T06:24:12Z</time>
      </trkpt>
      <trkpt lat="43.28577" lon="2.28164">
        <ele>169.03</ele>
        <time>2021-09-14T06:24:17Z</time>
      </trkpt>
      <trkpt lat="43.28587" lon="2.28164">
        <ele>169.47</ele>
        <time>2021-09-14T06:24:21Z</time>
      </trkpt>
      <trkpt lat="43.28597" lon="2.28164">
        <ele>169.99</ele>
        <time>2021-09-14T06:24:25Z</time>
      </trkpt>
      <trkpt lat="43.28608" lon="2.28162">
        <ele>170.63</ele>
        <time>2021-09-14T06:24:30Z</time>
      </trkpt>
      <trkpt lat="43.28619" lon="2.28161">
        <ele>171.45</ele>
        <time>2021-09-14T06:24:35Z</time>
      </trkpt>
      <trkpt lat="43.28627" lon="2.28168">
        <ele>172.42</ele>
        <time>2021-09-14T06:24:41Z</time>
      </trkpt>
      <trkpt lat="43.28632" lon="2.28181">
        <ele>173.26</ele>
        <time>2021-09-14T06:24:48Z</time>
      </trkpt>
      <trkpt lat="43.28638" lon="2.28192">
        <ele>174.03</ele>
        <time>2021-09-14T06:24:55Z</time>
      </trkpt>
      <trkpt lat="43.28645" lon="2.28208">
        <ele>174.67</ele>
        <time>2021-09-14T06:25:03Z</time>
      </trkpt>
      <trkpt lat="43.28649" lon="2.28223">
        <ele>174.96</ele>
        <time>2021-09-14T06:25:10Z</time>
      </trkpt>
      <trkpt lat="43.28654" lon="2.28236">
        <ele>175.19</ele>
        <time>2021-09-14T06:25:16Z</time>
      </trkpt>
      <trkpt lat="43.2866" lon="2.28248">
        <ele>175.55</ele>
        <time>2021-09-14T06:25:21Z</time>
      </trkpt>
      <trkpt lat="43.28666" lon="2.2826">
        <ele>176.01</ele>
        <time>2021-09-14T06:25:26Z</time>
      </trkpt>
      <trkpt lat="43.28672" lon="2.28272">
        <ele>176.15</ele>
        <time>2021-09-14T06:25:31Z</time>
      </trkpt>
      <trkpt lat="43.28677" lon="2.28285">
        <ele>176.27</ele>
        <time>2021-09-14T06:25:36Z</time>
      </trkpt>
      <trkpt lat="43.28682" lon="2.28298">
        <ele>176.45</ele>
        <time>2021-09-14T06:25:41Z</time>
      </trkpt>
      <trkpt lat="43.28688" lon="2.28309">
        <ele>176.59</ele>
        <time>2021-09-14T06:25:46Z</time>
      </trkpt>
      <trkpt lat="43.28691" lon="2.28322">
        <ele>176.79</ele>
        <time>2021-09-14T06:25:51Z</time>
      </trkpt>
      <trkpt lat="43.28694" lon="2.28337">
        <ele>177.02</ele>
        <time>2021-09-14T06:25:56Z</time>
      </trkpt>
      <trkpt lat="43.28697" lon="2.28351">
        <ele>177.23</ele>
        <time>2021-09-14T06:26:01Z</time>
      </trkpt>
      <trkpt lat="43.28701" lon="2.28364">
        <ele>177.46</ele>
        <time>2021-09-14T06:26:06Z</time>
      </trkpt>
      <trkpt lat="43.28704" lon="2.28377">
        <ele>177.65</ele>
        <time>2021-09-14T06:26:11Z</time>
      </trkpt>
      <trkpt lat="43.28707" lon="2.28392">
        <ele>178.02</ele>
        <time>2021-09-14T06:26:16Z</time>
      </trkpt>
      <trkpt lat="43.28708" lon="2.28408">
        <ele>178.07</ele>
        <time>2021-09-14T06:26:21Z</time>
      </trkpt>
      <trkpt lat="43.2871" lon="2.28425">
        <ele>178.4</ele>
        <time>2021-09-14T06:26:29Z</time>
      </trkpt>
      <trkpt lat="43.28717" lon="2.28448">
        <ele>178.99</ele>
        <time>2021-09-14T06:26:43Z</time>
      </trkpt>
      <trkpt lat="43.2873" lon="2.28463">
        <ele>179.94</ele>
        <time>2021-09-14T06:26:57Z</time>
      </trkpt>
      <trkpt lat="43.28742" lon="2.28473">
        <ele>180.66</ele>
        <time>2021-09-14T06:27:08Z</time>
      </trkpt>
      <trkpt lat="43.28754" lon="2.28478">
        <ele>181.83</ele>
        <time>2021-09-14T06:27:16Z</time>
      </trkpt>
      <trkpt lat="43.28766" lon="2.28477">
        <ele>181.96</ele>
        <time>2021-09-14T06:27:24Z</time>
      </trkpt>
      <trkpt lat="43.28778" lon="2.28482">
        <ele>182.55</ele>
        <time>2021-09-14T06:27:30Z</time>
      </trkpt>
      <trkpt lat="43.28791" lon="2.28487">
        <ele>183.52</ele>
        <time>2021-09-14T06:27:38Z</time>
      </trkpt>
      <trkpt lat="43.28805" lon="2.28494">
        <ele>184.45</ele>
        <time>2021-09-14T06:27:46Z</time>
      </trkpt>
      <trkpt lat="43.28818" lon="2.28495">
        <ele>184.83</ele>
        <time>2021-09-14T06:27:53Z</time>
      </trkpt>
      <trkpt lat="43.28832" lon="2.28486">
        <ele>184.57</ele>
        <time>2021-09-14T06:28:02Z</time>
      </trkpt>
      <trkpt lat="43.28848" lon="2.28485">
        <ele>184.27</ele>
        <time>2021-09-14T06:28:08Z</time>
      </trkpt>
      <trkpt lat="43.28863" lon="2.2848">
        <ele>184.21</ele>
        <time>2021-09-14T06:28:14Z</time>
      </trkpt>
      <trkpt lat="43.2888" lon="2.28473">
        <ele>184.48</ele>
        <time>2021-09-14T06:28:23Z</time>
      </trkpt>
      <trkpt lat="43.28891" lon="2.28462">
        <ele>185.68</ele>
        <time>2021-09-14T06:28:39Z</time>
      </trkpt>
      <trkpt lat="43.28905" lon="2.28449">
        <ele>186.2</ele>
        <time>2021-09-14T06:28:52Z</time>
      </trkpt>
      <trkpt lat="43.28921" lon="2.28435">
        <ele>187.09</ele>
        <time>2021-09-14T06:29:01Z</time>
      </trkpt>
      <trkpt lat="43.28935" lon="2.28426">
        <ele>187.64</ele>
        <time>2021-09-14T06:29:07Z</time>
      </trkpt>
      <trkpt lat="43.28944" lon="2.28412">
        <ele>187.98</ele>
        <time>2021-09-14T06:29:14Z</time>
      </trkpt>
      <trkpt lat="43.28953" lon="2.28403">
        <ele>188.22</ele>
        <time>2021-09-14T06:29:20Z</time>
      </trkpt>
      <trkpt lat="43.28952" lon="2.28381">
        <ele>188.47</ele>
        <time>2021-09-14T06:29:28Z</time>
      </trkpt>
      <trkpt lat="43.28951" lon="2.28359">
        <ele>188.28</ele>
        <time>2021-09-14T06:29:35Z</time>
      </trkpt>
      <trkpt lat="43.28954" lon="2.28335">
        <ele>188.06</ele>
        <time>2021-09-14T06:29:44Z</time>
      </trkpt>
      <trkpt lat="43.28955" lon="2.28312">
        <ele>187.85</ele>
        <time>2021-09-14T06:29:54Z</time>
      </trkpt>
      <trkpt lat="43.28955" lon="2.28294">
        <ele>187.66</ele>
        <time>2021-09-14T06:30:01Z</time>
      </trkpt>
      <trkpt lat="43.28954" lon="2.28273">
        <ele>187.41</ele>
        <time>2021-09-14T06:30:06Z</time>
      </trkpt>
      <trkpt lat="43.28951" lon="2.28252">
        <ele>187.22</ele>
        <time>2021-09-14T06:30:11Z</time>
      </trkpt>
      <trkpt lat="43.28953" lon="2.28219">
        <ele>187.29</ele>
        <time>2021-09-14T06:30:21Z</time>
      </trkpt>
      <trkpt lat="43.28951" lon="2.282">
        <ele>186.98</ele>
        <time>2021-09-14T06:30:33Z</time>
      </trkpt>
      <trkpt lat="43.28952" lon="2.28205">
        <ele>186.88</ele>
        <time>2021-09-14T06:30:53Z</time>
      </trkpt>
      <trkpt lat="43.28961" lon="2.28199">
        <ele>187.29</ele>
        <time>2021-09-14T06:31:04Z</time>
      </trkpt>
      <trkpt lat="43.2897" lon="2.28192">
        <ele>187.5</ele>
        <time>2021-09-14T06:31:10Z</time>
      </trkpt>
      <trkpt lat="43.28982" lon="2.28182">
        <ele>187.42</ele>
        <time>2021-09-14T06:31:16Z</time>
      </trkpt>
      <trkpt lat="43.2899" lon="2.2817">
        <ele>187.23</ele>
        <time>2021-09-14T06:31:23Z</time>
      </trkpt>
      <trkpt lat="43.29003" lon="2.28159">
        <ele>187.53</ele>
        <time>2021-09-14T06:31:34Z</time>
      </trkpt>
      <trkpt lat="43.29015" lon="2.28153">
        <ele>187.73</ele>
        <time>2021-09-14T06:31:41Z</time>
      </trkpt>
      <trkpt lat="43.29027" lon="2.28145">
        <ele>187.95</ele>
        <time>2021-09-14T06:31:47Z</time>
      </trkpt>
      <trkpt lat="43.29043" lon="2.28131">
        <ele>188.47</ele>
        <time>2021-09-14T06:31:56Z</time>
      </trkpt>
      <trkpt lat="43.29052" lon="2.28132">
        <ele>188.93</ele>
        <time>2021-09-14T06:32:03Z</time>
      </trkpt>
      <trkpt lat="43.29067" lon="2.28132">
        <ele>189.83</ele>
        <time>2021-09-14T06:32:12Z</time>
      </trkpt>
      <trkpt lat="43.29088" lon="2.28128">
        <ele>190.5</ele>
        <time>2021-09-14T06:32:22Z</time>
      </trkpt>
      <trkpt lat="43.29104" lon="2.28126">
        <ele>190.89</ele>
        <time>2021-09-14T06:32:27Z</time>
      </trkpt>
      <trkpt lat="43.29118" lon="2.28121">
        <ele>191.43</ele>
        <time>2021-09-14T06:32:32Z</time>
      </trkpt>
      <trkpt lat="43.29129" lon="2.28117">
        <ele>192.04</ele>
        <time>2021-09-14T06:32:37Z</time>
      </trkpt>
      <trkpt lat="43.2914" lon="2.2811">
        <ele>192.76</ele>
        <time>2021-09-14T06:32:43Z</time>
      </trkpt>
      <trkpt lat="43.29149" lon="2.28101">
        <ele>193.32</ele>
        <time>2021-09-14T06:32:49Z</time>
      </trkpt>
      <trkpt lat="43.29161" lon="2.28095">
        <ele>193.64</ele>
        <time>2021-09-14T06:32:55Z</time>
      </trkpt>
      <trkpt lat="43.29171" lon="2.28088">
        <ele>194.23</ele>
        <time>2021-09-14T06:33:01Z</time>
      </trkpt>
      <trkpt lat="43.2918" lon="2.28078">
        <ele>194.58</ele>
        <time>2021-09-14T06:33:06Z</time>
      </trkpt>
      <trkpt lat="43.29189" lon="2.28066">
        <ele>194.78</ele>
        <time>2021-09-14T06:33:11Z</time>
      </trkpt>
      <trkpt lat="43.29198" lon="2.28059">
        <ele>195.2</ele>
        <time>2021-09-14T06:33:18Z</time>
      </trkpt>
      <trkpt lat="43.29201" lon="2.28059">
        <ele>195.42</ele>
        <time>2021-09-14T06:33:19Z</time>
      </trkpt>
      <trkpt lat="43.29213" lon="2.2806">
        <ele>196.1</ele>
        <time>2021-09-14T06:33:27Z</time>
      </trkpt>
      <trkpt lat="43.29224" lon="2.28055">
        <ele>197.14</ele>
        <time>2021-09-14T06:33:38Z</time>
      </trkpt>
      <trkpt lat="43.2923" lon="2.28055">
        <ele>197.45</ele>
        <time>2021-09-14T06:33:59Z</time>
      </trkpt>
      <trkpt lat="43.29232" lon="2.28068">
        <ele>197.63</ele>
        <time>2021-09-14T06:34:10Z</time>
      </trkpt>
      <trkpt lat="43.29237" lon="2.28079">
        <ele>197.71</ele>
        <time>2021-09-14T06:34:17Z</time>
      </trkpt>
      <trkpt lat="43.29244" lon="2.28091">
        <ele>197.83</ele>
        <time>2021-09-14T06:34:23Z</time>
      </trkpt>
      <trkpt lat="43.29248" lon="2.28104">
        <ele>198</ele>
        <time>2021-09-14T06:34:28Z</time>
      </trkpt>
      <trkpt lat="43.29248" lon="2.2812">
        <ele>198.36</ele>
        <time>2021-09-14T06:34:35Z</time>
      </trkpt>
      <trkpt lat="43.29249" lon="2.28136">
        <ele>198.37</ele>
        <time>2021-09-14T06:34:41Z</time>
      </trkpt>
      <trkpt lat="43.29246" lon="2.28149">
        <ele>197.63</ele>
        <time>2021-09-14T06:34:48Z</time>
      </trkpt>
      <trkpt lat="43.29243" lon="2.28164">
        <ele>197.34</ele>
        <time>2021-09-14T06:34:54Z</time>
      </trkpt>
      <trkpt lat="43.29238" lon="2.28184">
        <ele>197.66</ele>
        <time>2021-09-14T06:35:01Z</time>
      </trkpt>
      <trkpt lat="43.29231" lon="2.28212">
        <ele>197.35</ele>
        <time>2021-09-14T06:35:14Z</time>
      </trkpt>
      <trkpt lat="43.29217" lon="2.2824">
        <ele>196.97</ele>
        <time>2021-09-14T06:35:24Z</time>
      </trkpt>
      <trkpt lat="43.29208" lon="2.2827">
        <ele>197.88</ele>
        <time>2021-09-14T06:35:35Z</time>
      </trkpt>
      <trkpt lat="43.29202" lon="2.28301">
        <ele>197.06</ele>
        <time>2021-09-14T06:35:46Z</time>
      </trkpt>
      <trkpt lat="43.29196" lon="2.28327">
        <ele>196.76</ele>
        <time>2021-09-14T06:35:53Z</time>
      </trkpt>
      <trkpt lat="43.29191" lon="2.28353">
        <ele>197.11</ele>
        <time>2021-09-14T06:36:02Z</time>
      </trkpt>
      <trkpt lat="43.29191" lon="2.28377">
        <ele>197.96</ele>
        <time>2021-09-14T06:36:12Z</time>
      </trkpt>
      <trkpt lat="43.29192" lon="2.28404">
        <ele>198.77</ele>
        <time>2021-09-14T06:36:28Z</time>
      </trkpt>
      <trkpt lat="43.29189" lon="2.2843">
        <ele>200.85</ele>
        <time>2021-09-14T06:36:43Z</time>
      </trkpt>
      <trkpt lat="43.29192" lon="2.28455">
        <ele>201.26</ele>
        <time>2021-09-14T06:37:00Z</time>
      </trkpt>
      <trkpt lat="43.292" lon="2.28472">
        <ele>201.31</ele>
        <time>2021-09-14T06:37:15Z</time>
      </trkpt>
      <trkpt lat="43.29208" lon="2.28491">
        <ele>201.53</ele>
        <time>2021-09-14T06:37:28Z</time>
      </trkpt>
      <trkpt lat="43.29212" lon="2.28509">
        <ele>202.06</ele>
        <time>2021-09-14T06:37:36Z</time>
      </trkpt>
      <trkpt lat="43.2922" lon="2.28529">
        <ele>202.49</ele>
        <time>2021-09-14T06:37:46Z</time>
      </trkpt>
      <trkpt lat="43.29225" lon="2.28549">
        <ele>202.93</ele>
        <time>2021-09-14T06:37:56Z</time>
      </trkpt>
      <trkpt lat="43.29232" lon="2.2857">
        <ele>203.6</ele>
        <time>2021-09-14T06:38:05Z</time>
      </trkpt>
      <trkpt lat="43.29237" lon="2.28593">
        <ele>203.89</ele>
        <time>2021-09-14T06:38:12Z</time>
      </trkpt>
      <trkpt lat="43.29254" lon="2.28622">
        <ele>204.49</ele>
        <time>2021-09-14T06:38:25Z</time>
      </trkpt>
      <trkpt lat="43.29261" lon="2.28636">
        <ele>204.86</ele>
        <time>2021-09-14T06:38:30Z</time>
      </trkpt>
      <trkpt lat="43.29267" lon="2.28651">
        <ele>205.12</ele>
        <time>2021-09-14T06:38:36Z</time>
      </trkpt>
      <trkpt lat="43.29276" lon="2.28663">
        <ele>205.61</ele>
        <time>2021-09-14T06:38:42Z</time>
      </trkpt>
      <trkpt lat="43.2929" lon="2.28679">
        <ele>206.25</ele>
        <time>2021-09-14T06:38:53Z</time>
      </trkpt>
      <trkpt lat="43.29303" lon="2.28698">
        <ele>206.62</ele>
        <time>2021-09-14T06:39:03Z</time>
      </trkpt>
      <trkpt lat="43.29317" lon="2.28717">
        <ele>206.97</ele>
        <time>2021-09-14T06:39:13Z</time>
      </trkpt>
      <trkpt lat="43.29325" lon="2.28737">
        <ele>207.44</ele>
        <time>2021-09-14T06:39:24Z</time>
      </trkpt>
      <trkpt lat="43.29352" lon="2.28743">
        <ele>207.53</ele>
        <time>2021-09-14T06:39:38Z</time>
      </trkpt>
      <trkpt lat="43.29382" lon="2.28759">
        <ele>207.43</ele>
        <time>2021-09-14T06:39:47Z</time>
      </trkpt>
      <trkpt lat="43.29402" lon="2.28769">
        <ele>207.58</ele>
        <time>2021-09-14T06:39:55Z</time>
      </trkpt>
      <trkpt lat="43.29417" lon="2.28767">
        <ele>208.53</ele>
        <time>2021-09-14T06:40:05Z</time>
      </trkpt>
      <trkpt lat="43.29442" lon="2.28772">
        <ele>210.11</ele>
        <time>2021-09-14T06:40:18Z</time>
      </trkpt>
      <trkpt lat="43.29463" lon="2.28767">
        <ele>211.17</ele>
        <time>2021-09-14T06:40:29Z</time>
      </trkpt>
      <trkpt lat="43.29487" lon="2.28758">
        <ele>212.11</ele>
        <time>2021-09-14T06:40:41Z</time>
      </trkpt>
      <trkpt lat="43.29515" lon="2.28744">
        <ele>212.76</ele>
        <time>2021-09-14T06:40:55Z</time>
      </trkpt>
      <trkpt lat="43.29533" lon="2.28741">
        <ele>212.96</ele>
        <time>2021-09-14T06:41:03Z</time>
      </trkpt>
      <trkpt lat="43.29547" lon="2.28732">
        <ele>213.77</ele>
        <time>2021-09-14T06:41:11Z</time>
      </trkpt>
      <trkpt lat="43.29575" lon="2.28719">
        <ele>215.29</ele>
        <time>2021-09-14T06:41:25Z</time>
      </trkpt>
      <trkpt lat="43.29592" lon="2.28713">
        <ele>216.28</ele>
        <time>2021-09-14T06:41:33Z</time>
      </trkpt>
      <trkpt lat="43.29598" lon="2.28708">
        <ele>216.55</ele>
        <time>2021-09-14T06:41:36Z</time>
      </trkpt>
      <trkpt lat="43.29618" lon="2.28699">
        <ele>217.1</ele>
        <time>2021-09-14T06:41:44Z</time>
      </trkpt>
      <trkpt lat="43.29634" lon="2.28693">
        <ele>218.08</ele>
        <time>2021-09-14T06:41:53Z</time>
      </trkpt>
      <trkpt lat="43.29649" lon="2.28689">
        <ele>218.7</ele>
        <time>2021-09-14T06:41:59Z</time>
      </trkpt>
      <trkpt lat="43.29666" lon="2.28687">
        <ele>219.25</ele>
        <time>2021-09-14T06:42:05Z</time>
      </trkpt>
      <trkpt lat="43.29678" lon="2.28678">
        <ele>219.88</ele>
        <time>2021-09-14T06:42:12Z</time>
      </trkpt>
      <trkpt lat="43.29694" lon="2.28669">
        <ele>221.07</ele>
        <time>2021-09-14T06:42:21Z</time>
      </trkpt>
      <trkpt lat="43.29709" lon="2.28666">
        <ele>221.53</ele>
        <time>2021-09-14T06:42:27Z</time>
      </trkpt>
      <trkpt lat="43.29722" lon="2.28657">
        <ele>222.11</ele>
        <time>2021-09-14T06:42:35Z</time>
      </trkpt>
      <trkpt lat="43.29739" lon="2.28644">
        <ele>223.1</ele>
        <time>2021-09-14T06:42:44Z</time>
      </trkpt>
      <trkpt lat="43.29752" lon="2.2864">
        <ele>223.62</ele>
        <time>2021-09-14T06:42:49Z</time>
      </trkpt>
      <trkpt lat="43.29763" lon="2.28631">
        <ele>224.15</ele>
        <time>2021-09-14T06:42:55Z</time>
      </trkpt>
      <trkpt lat="43.29778" lon="2.28618">
        <ele>224.97</ele>
        <time>2021-09-14T06:43:04Z</time>
      </trkpt>
      <trkpt lat="43.29789" lon="2.28604">
        <ele>225.72</ele>
        <time>2021-09-14T06:43:12Z</time>
      </trkpt>
      <trkpt lat="43.298" lon="2.28592">
        <ele>226.48</ele>
        <time>2021-09-14T06:43:20Z</time>
      </trkpt>
      <trkpt lat="43.29814" lon="2.28585">
        <ele>227.23</ele>
        <time>2021-09-14T06:43:26Z</time>
      </trkpt>
      <trkpt lat="43.29828" lon="2.28572">
        <ele>228.08</ele>
        <time>2021-09-14T06:43:33Z</time>
      </trkpt>
      <trkpt lat="43.29843" lon="2.28561">
        <ele>229.6</ele>
        <time>2021-09-14T06:43:45Z</time>
      </trkpt>
      <trkpt lat="43.29865" lon="2.28546">
        <ele>230.81</ele>
        <time>2021-09-14T06:43:59Z</time>
      </trkpt>
      <trkpt lat="43.29887" lon="2.28538">
        <ele>231.39</ele>
        <time>2021-09-14T06:44:07Z</time>
      </trkpt>
      <trkpt lat="43.29904" lon="2.28527">
        <ele>231.93</ele>
        <time>2021-09-14T06:44:16Z</time>
      </trkpt>
      <trkpt lat="43.29918" lon="2.28512">
        <ele>232.56</ele>
        <time>2021-09-14T06:44:24Z</time>
      </trkpt>
      <trkpt lat="43.29931" lon="2.28497">
        <ele>232.82</ele>
        <time>2021-09-14T06:44:31Z</time>
      </trkpt>
      <trkpt lat="43.29946" lon="2.28482">
        <ele>233.56</ele>
        <time>2021-09-14T06:44:41Z</time>
      </trkpt>
      <trkpt lat="43.29959" lon="2.28466">
        <ele>234.66</ele>
        <time>2021-09-14T06:44:49Z</time>
      </trkpt>
      <trkpt lat="43.29968" lon="2.28449">
        <ele>235.54</ele>
        <time>2021-09-14T06:44:56Z</time>
      </trkpt>
      <trkpt lat="43.2998" lon="2.28433">
        <ele>236.13</ele>
        <time>2021-09-14T06:45:04Z</time>
      </trkpt>
      <trkpt lat="43.29991" lon="2.28419">
        <ele>236.56</ele>
        <time>2021-09-14T06:45:12Z</time>
      </trkpt>
      <trkpt lat="43.29998" lon="2.28402">
        <ele>237.06</ele>
        <time>2021-09-14T06:45:19Z</time>
      </trkpt>
      <trkpt lat="43.30006" lon="2.28384">
        <ele>237.26</ele>
        <time>2021-09-14T06:45:25Z</time>
      </trkpt>
      <trkpt lat="43.30014" lon="2.28368">
        <ele>237.38</ele>
        <time>2021-09-14T06:45:32Z</time>
      </trkpt>
      <trkpt lat="43.30022" lon="2.28352">
        <ele>237.36</ele>
        <time>2021-09-14T06:45:38Z</time>
      </trkpt>
      <trkpt lat="43.30031" lon="2.28338">
        <ele>237.37</ele>
        <time>2021-09-14T06:45:43Z</time>
      </trkpt>
      <trkpt lat="43.3004" lon="2.28323">
        <ele>237.63</ele>
        <time>2021-09-14T06:45:48Z</time>
      </trkpt>
      <trkpt lat="43.30047" lon="2.28308">
        <ele>237.89</ele>
        <time>2021-09-14T06:45:53Z</time>
      </trkpt>
      <trkpt lat="43.30053" lon="2.28293">
        <ele>238.25</ele>
        <time>2021-09-14T06:45:58Z</time>
      </trkpt>
      <trkpt lat="43.30059" lon="2.28279">
        <ele>238.52</ele>
        <time>2021-09-14T06:46:03Z</time>
      </trkpt>
      <trkpt lat="43.30066" lon="2.28263">
        <ele>238.89</ele>
        <time>2021-09-14T06:46:09Z</time>
      </trkpt>
      <trkpt lat="43.30075" lon="2.28248">
        <ele>239.54</ele>
        <time>2021-09-14T06:46:15Z</time>
      </trkpt>
      <trkpt lat="43.30084" lon="2.28236">
        <ele>239.7</ele>
        <time>2021-09-14T06:46:23Z</time>
      </trkpt>
      <trkpt lat="43.3009" lon="2.28218">
        <ele>239.93</ele>
        <time>2021-09-14T06:46:34Z</time>
      </trkpt>
      <trkpt lat="43.30101" lon="2.28199">
        <ele>240.23</ele>
        <time>2021-09-14T06:46:47Z</time>
      </trkpt>
      <trkpt lat="43.30115" lon="2.28176">
        <ele>240.24</ele>
        <time>2021-09-14T06:47:01Z</time>
      </trkpt>
      <trkpt lat="43.30126" lon="2.28155">
        <ele>240.51</ele>
        <time>2021-09-14T06:47:14Z</time>
      </trkpt>
      <trkpt lat="43.30134" lon="2.28133">
        <ele>240.48</ele>
        <time>2021-09-14T06:47:24Z</time>
      </trkpt>
      <trkpt lat="43.30141" lon="2.28112">
        <ele>240.65</ele>
        <time>2021-09-14T06:47:33Z</time>
      </trkpt>
      <trkpt lat="43.30146" lon="2.28092">
        <ele>240.88</ele>
        <time>2021-09-14T06:47:40Z</time>
      </trkpt>
      <trkpt lat="43.30154" lon="2.28075">
        <ele>241.07</ele>
        <time>2021-09-14T06:47:48Z</time>
      </trkpt>
      <trkpt lat="43.30163" lon="2.28058">
        <ele>241.66</ele>
        <time>2021-09-14T06:47:55Z</time>
      </trkpt>
      <trkpt lat="43.30165" lon="2.28037">
        <ele>242.47</ele>
        <time>2021-09-14T06:48:03Z</time>
      </trkpt>
      <trkpt lat="43.30165" lon="2.28021">
        <ele>242.97</ele>
        <time>2021-09-14T06:48:09Z</time>
      </trkpt>
      <trkpt lat="43.30166" lon="2.28001">
        <ele>243.24</ele>
        <time>2021-09-14T06:48:15Z</time>
      </trkpt>
      <trkpt lat="43.30168" lon="2.27983">
        <ele>243.34</ele>
        <time>2021-09-14T06:48:21Z</time>
      </trkpt>
      <trkpt lat="43.30166" lon="2.27965">
        <ele>243.59</ele>
        <time>2021-09-14T06:48:29Z</time>
      </trkpt>
      <trkpt lat="43.30162" lon="2.27946">
        <ele>244</ele>
        <time>2021-09-14T06:48:37Z</time>
      </trkpt>
      <trkpt lat="43.30163" lon="2.27926">
        <ele>244.65</ele>
        <time>2021-09-14T06:48:46Z</time>
      </trkpt>
      <trkpt lat="43.30161" lon="2.27922">
        <ele>244.66</ele>
        <time>2021-09-14T06:48:48Z</time>
      </trkpt>
      <trkpt lat="43.30153" lon="2.27905">
        <ele>244.26</ele>
        <time>2021-09-14T06:48:56Z</time>
      </trkpt>
      <trkpt lat="43.30144" lon="2.27886">
        <ele>243.88</ele>
        <time>2021-09-14T06:49:03Z</time>
      </trkpt>
      <trkpt lat="43.30142" lon="2.27866">
        <ele>243.42</ele>
        <time>2021-09-14T06:49:10Z</time>
      </trkpt>
      <trkpt lat="43.3014" lon="2.27848">
        <ele>243.18</ele>
        <time>2021-09-14T06:49:16Z</time>
      </trkpt>
      <trkpt lat="43.30138" lon="2.27828">
        <ele>242.75</ele>
        <time>2021-09-14T06:49:25Z</time>
      </trkpt>
      <trkpt lat="43.30121" lon="2.27804">
        <ele>243.43</ele>
        <time>2021-09-14T06:49:39Z</time>
      </trkpt>
      <trkpt lat="43.30104" lon="2.27796">
        <ele>243.26</ele>
        <time>2021-09-14T06:49:55Z</time>
      </trkpt>
      <trkpt lat="43.30083" lon="2.2778">
        <ele>242.49</ele>
        <time>2021-09-14T06:50:10Z</time>
      </trkpt>
      <trkpt lat="43.30064" lon="2.27763">
        <ele>241.71</ele>
        <time>2021-09-14T06:50:25Z</time>
      </trkpt>
      <trkpt lat="43.30043" lon="2.27744">
        <ele>240.7</ele>
        <time>2021-09-14T06:50:43Z</time>
      </trkpt>
      <trkpt lat="43.30023" lon="2.27724">
        <ele>239.81</ele>
        <time>2021-09-14T06:50:58Z</time>
      </trkpt>
      <trkpt lat="43.3001" lon="2.27712">
        <ele>239.33</ele>
        <time>2021-09-14T06:51:09Z</time>
      </trkpt>
      <trkpt lat="43.3" lon="2.27704">
        <ele>239.46</ele>
        <time>2021-09-14T06:51:24Z</time>
      </trkpt>
      <trkpt lat="43.29986" lon="2.27697">
        <ele>239.14</ele>
        <time>2021-09-14T06:51:45Z</time>
      </trkpt>
      <trkpt lat="43.29973" lon="2.27689">
        <ele>238.29</ele>
        <time>2021-09-14T06:52:02Z</time>
      </trkpt>
      <trkpt lat="43.29964" lon="2.27685">
        <ele>238.24</ele>
        <time>2021-09-14T06:52:21Z</time>
      </trkpt>
      <trkpt lat="43.29952" lon="2.27682">
        <ele>237.13</ele>
        <time>2021-09-14T06:52:31Z</time>
      </trkpt>
      <trkpt lat="43.29941" lon="2.27685">
        <ele>236.13</ele>
        <time>2021-09-14T06:52:37Z</time>
      </trkpt>
      <trkpt lat="43.29929" lon="2.2769">
        <ele>235.2</ele>
        <time>2021-09-14T06:52:43Z</time>
      </trkpt>
      <trkpt lat="43.29917" lon="2.27688">
        <ele>234.12</ele>
        <time>2021-09-14T06:52:50Z</time>
      </trkpt>
      <trkpt lat="43.299" lon="2.27684">
        <ele>233.44</ele>
        <time>2021-09-14T06:53:00Z</time>
      </trkpt>
      <trkpt lat="43.29877" lon="2.27675">
        <ele>233.04</ele>
        <time>2021-09-14T06:53:10Z</time>
      </trkpt>
      <trkpt lat="43.29863" lon="2.27674">
        <ele>232.54</ele>
        <time>2021-09-14T06:53:17Z</time>
      </trkpt>
      <trkpt lat="43.29845" lon="2.27678">
        <ele>232.25</ele>
        <time>2021-09-14T06:53:30Z</time>
      </trkpt>
      <trkpt lat="43.29833" lon="2.27671">
        <ele>231.2</ele>
        <time>2021-09-14T06:53:38Z</time>
      </trkpt>
      <trkpt lat="43.29819" lon="2.27664">
        <ele>230.39</ele>
        <time>2021-09-14T06:53:46Z</time>
      </trkpt>
      <trkpt lat="43.29806" lon="2.27658">
        <ele>229.68</ele>
        <time>2021-09-14T06:53:51Z</time>
      </trkpt>
      <trkpt lat="43.29791" lon="2.27651">
        <ele>228.66</ele>
        <time>2021-09-14T06:53:57Z</time>
      </trkpt>
      <trkpt lat="43.29777" lon="2.27645">
        <ele>227.95</ele>
        <time>2021-09-14T06:54:02Z</time>
      </trkpt>
      <trkpt lat="43.29765" lon="2.27642">
        <ele>227.33</ele>
        <time>2021-09-14T06:54:07Z</time>
      </trkpt>
      <trkpt lat="43.29747" lon="2.27636">
        <ele>225.56</ele>
        <time>2021-09-14T06:54:17Z</time>
      </trkpt>
      <trkpt lat="43.29728" lon="2.27634">
        <ele>223.44</ele>
        <time>2021-09-14T06:54:32Z</time>
      </trkpt>
      <trkpt lat="43.29721" lon="2.27621">
        <ele>224</ele>
        <time>2021-09-14T06:54:40Z</time>
      </trkpt>
      <trkpt lat="43.29715" lon="2.27607">
        <ele>224.59</ele>
        <time>2021-09-14T06:54:47Z</time>
      </trkpt>
      <trkpt lat="43.29715" lon="2.2759">
        <ele>225.63</ele>
        <time>2021-09-14T06:54:55Z</time>
      </trkpt>
      <trkpt lat="43.29716" lon="2.27572">
        <ele>226.43</ele>
        <time>2021-09-14T06:55:04Z</time>
      </trkpt>
      <trkpt lat="43.29715" lon="2.27558">
        <ele>226.72</ele>
        <time>2021-09-14T06:55:12Z</time>
      </trkpt>
      <trkpt lat="43.29717" lon="2.27545">
        <ele>227.12</ele>
        <time>2021-09-14T06:55:21Z</time>
      </trkpt>
      <trkpt lat="43.29729" lon="2.27537">
        <ele>228.38</ele>
        <time>2021-09-14T06:55:32Z</time>
      </trkpt>
      <trkpt lat="43.29744" lon="2.27528">
        <ele>229.31</ele>
        <time>2021-09-14T06:55:43Z</time>
      </trkpt>
      <trkpt lat="43.29757" lon="2.27524">
        <ele>230.33</ele>
        <time>2021-09-14T06:55:51Z</time>
      </trkpt>
      <trkpt lat="43.29774" lon="2.2752">
        <ele>231.17</ele>
        <time>2021-09-14T06:56:00Z</time>
      </trkpt>
      <trkpt lat="43.29791" lon="2.27514">
        <ele>231.94</ele>
        <time>2021-09-14T06:56:08Z</time>
      </trkpt>
      <trkpt lat="43.29807" lon="2.27511">
        <ele>232.82</ele>
        <time>2021-09-14T06:56:17Z</time>
      </trkpt>
      <trkpt lat="43.29822" lon="2.27509">
        <ele>233.64</ele>
        <time>2021-09-14T06:56:24Z</time>
      </trkpt>
      <trkpt lat="43.29836" lon="2.27505">
        <ele>234.74</ele>
        <time>2021-09-14T06:56:33Z</time>
      </trkpt>
      <trkpt lat="43.29855" lon="2.27501">
        <ele>236.34</ele>
        <time>2021-09-14T06:56:43Z</time>
      </trkpt>
      <trkpt lat="43.29875" lon="2.27495">
        <ele>237.53</ele>
        <time>2021-09-14T06:56:56Z</time>
      </trkpt>
      <trkpt lat="43.29894" lon="2.27498">
        <ele>239.02</ele>
        <time>2021-09-14T06:57:06Z</time>
      </trkpt>
      <trkpt lat="43.29909" lon="2.27498">
        <ele>239.93</ele>
        <time>2021-09-14T06:57:11Z</time>
      </trkpt>
      <trkpt lat="43.29922" lon="2.275">
        <ele>240.89</ele>
        <time>2021-09-14T06:57:16Z</time>
      </trkpt>
      <trkpt lat="43.29933" lon="2.27503">
        <ele>241.61</ele>
        <time>2021-09-14T06:57:21Z</time>
      </trkpt>
      <trkpt lat="43.29949" lon="2.27509">
        <ele>242.68</ele>
        <time>2021-09-14T06:57:27Z</time>
      </trkpt>
      <trkpt lat="43.29964" lon="2.27513">
        <ele>243.58</ele>
        <time>2021-09-14T06:57:33Z</time>
      </trkpt>
      <trkpt lat="43.2998" lon="2.27514">
        <ele>244.44</ele>
        <time>2021-09-14T06:57:39Z</time>
      </trkpt>
      <trkpt lat="43.29992" lon="2.27508">
        <ele>245.13</ele>
        <time>2021-09-14T06:57:45Z</time>
      </trkpt>
      <trkpt lat="43.3" lon="2.27498">
        <ele>245.5</ele>
        <time>2021-09-14T06:57:50Z</time>
      </trkpt>
      <trkpt lat="43.30006" lon="2.27484">
        <ele>245.83</ele>
        <time>2021-09-14T06:57:55Z</time>
      </trkpt>
      <trkpt lat="43.3001" lon="2.27467">
        <ele>246.13</ele>
        <time>2021-09-14T06:58:00Z</time>
      </trkpt>
      <trkpt lat="43.30011" lon="2.27452">
        <ele>246.22</ele>
        <time>2021-09-14T06:58:05Z</time>
      </trkpt>
      <trkpt lat="43.30017" lon="2.27438">
        <ele>246.24</ele>
        <time>2021-09-14T06:58:10Z</time>
      </trkpt>
      <trkpt lat="43.30022" lon="2.27427">
        <ele>246.33</ele>
        <time>2021-09-14T06:58:15Z</time>
      </trkpt>
      <trkpt lat="43.3003" lon="2.27417">
        <ele>246.6</ele>
        <time>2021-09-14T06:58:20Z</time>
      </trkpt>
      <trkpt lat="43.30037" lon="2.27402">
        <ele>246.77</ele>
        <time>2021-09-14T06:58:25Z</time>
      </trkpt>
      <trkpt lat="43.30044" lon="2.27384">
        <ele>247.1</ele>
        <time>2021-09-14T06:58:30Z</time>
      </trkpt>
      <trkpt lat="43.3005" lon="2.27369">
        <ele>247.36</ele>
        <time>2021-09-14T06:58:35Z</time>
      </trkpt>
      <trkpt lat="43.30058" lon="2.2736">
        <ele>247.64</ele>
        <time>2021-09-14T06:58:40Z</time>
      </trkpt>
      <trkpt lat="43.30063" lon="2.27352">
        <ele>247.98</ele>
        <time>2021-09-14T06:58:45Z</time>
      </trkpt>
      <trkpt lat="43.30069" lon="2.27343">
        <ele>248.28</ele>
        <time>2021-09-14T06:58:52Z</time>
      </trkpt>
      <trkpt lat="43.30077" lon="2.27333">
        <ele>248.96</ele>
        <time>2021-09-14T06:59:02Z</time>
      </trkpt>
      <trkpt lat="43.30085" lon="2.2732">
        <ele>249.12</ele>
        <time>2021-09-14T06:59:13Z</time>
      </trkpt>
      <trkpt lat="43.3009" lon="2.27306">
        <ele>249.12</ele>
        <time>2021-09-14T06:59:23Z</time>
      </trkpt>
      <trkpt lat="43.30089" lon="2.2729">
        <ele>249.65</ele>
        <time>2021-09-14T06:59:35Z</time>
      </trkpt>
      <trkpt lat="43.3008" lon="2.27287">
        <ele>249.52</ele>
        <time>2021-09-14T07:00:01Z</time>
      </trkpt>
      <trkpt lat="43.3007" lon="2.27286">
        <ele>249.2</ele>
        <time>2021-09-14T07:00:12Z</time>
      </trkpt>
      <trkpt lat="43.30059" lon="2.27281">
        <ele>249.17</ele>
        <time>2021-09-14T07:00:17Z</time>
      </trkpt>
      <trkpt lat="43.3005" lon="2.27275">
        <ele>248.76</ele>
        <time>2021-09-14T07:00:21Z</time>
      </trkpt>
      <trkpt lat="43.3004" lon="2.2727">
        <ele>248.39</ele>
        <time>2021-09-14T07:00:25Z</time>
      </trkpt>
      <trkpt lat="43.3003" lon="2.27265">
        <ele>248.1</ele>
        <time>2021-09-14T07:00:29Z</time>
      </trkpt>
      <trkpt lat="43.3002" lon="2.2726">
        <ele>247.85</ele>
        <time>2021-09-14T07:00:33Z</time>
      </trkpt>
      <trkpt lat="43.30009" lon="2.27256">
        <ele>247.49</ele>
        <time>2021-09-14T07:00:37Z</time>
      </trkpt>
      <trkpt lat="43.29999" lon="2.27254">
        <ele>246.87</ele>
        <time>2021-09-14T07:00:41Z</time>
      </trkpt>
      <trkpt lat="43.2999" lon="2.27248">
        <ele>246.36</ele>
        <time>2021-09-14T07:00:45Z</time>
      </trkpt>
      <trkpt lat="43.29979" lon="2.27242">
        <ele>245.98</ele>
        <time>2021-09-14T07:00:50Z</time>
      </trkpt>
      <trkpt lat="43.29966" lon="2.27238">
        <ele>245.24</ele>
        <time>2021-09-14T07:00:55Z</time>
      </trkpt>
      <trkpt lat="43.29956" lon="2.27231">
        <ele>244.66</ele>
        <time>2021-09-14T07:00:59Z</time>
      </trkpt>
      <trkpt lat="43.29946" lon="2.27223">
        <ele>244.11</ele>
        <time>2021-09-14T07:01:03Z</time>
      </trkpt>
      <trkpt lat="43.29934" lon="2.27215">
        <ele>243.55</ele>
        <time>2021-09-14T07:01:08Z</time>
      </trkpt>
      <trkpt lat="43.29925" lon="2.27207">
        <ele>242.91</ele>
        <time>2021-09-14T07:01:13Z</time>
      </trkpt>
      <trkpt lat="43.29915" lon="2.272">
        <ele>242.5</ele>
        <time>2021-09-14T07:01:18Z</time>
      </trkpt>
      <trkpt lat="43.29904" lon="2.27192">
        <ele>241.59</ele>
        <time>2021-09-14T07:01:23Z</time>
      </trkpt>
      <trkpt lat="43.29894" lon="2.27186">
        <ele>241.08</ele>
        <time>2021-09-14T07:01:27Z</time>
      </trkpt>
      <trkpt lat="43.29884" lon="2.2718">
        <ele>240.52</ele>
        <time>2021-09-14T07:01:31Z</time>
      </trkpt>
      <trkpt lat="43.29874" lon="2.27171">
        <ele>239.68</ele>
        <time>2021-09-14T07:01:36Z</time>
      </trkpt>
      <trkpt lat="43.29866" lon="2.27165">
        <ele>239.13</ele>
        <time>2021-09-14T07:01:40Z</time>
      </trkpt>
      <trkpt lat="43.29857" lon="2.27153">
        <ele>238.7</ele>
        <time>2021-09-14T07:01:45Z</time>
      </trkpt>
      <trkpt lat="43.2985" lon="2.27145">
        <ele>238.09</ele>
        <time>2021-09-14T07:01:49Z</time>
      </trkpt>
      <trkpt lat="43.2984" lon="2.27138">
        <ele>237.36</ele>
        <time>2021-09-14T07:01:53Z</time>
      </trkpt>
      <trkpt lat="43.2983" lon="2.27131">
        <ele>236.7</ele>
        <time>2021-09-14T07:01:58Z</time>
      </trkpt>
      <trkpt lat="43.29821" lon="2.27124">
        <ele>236.13</ele>
        <time>2021-09-14T07:02:03Z</time>
      </trkpt>
      <trkpt lat="43.29811" lon="2.27119">
        <ele>235.66</ele>
        <time>2021-09-14T07:02:08Z</time>
      </trkpt>
      <trkpt lat="43.29801" lon="2.27113">
        <ele>234.76</ele>
        <time>2021-09-14T07:02:13Z</time>
      </trkpt>
      <trkpt lat="43.29789" lon="2.27109">
        <ele>233.95</ele>
        <time>2021-09-14T07:02:18Z</time>
      </trkpt>
      <trkpt lat="43.29778" lon="2.27106">
        <ele>233.4</ele>
        <time>2021-09-14T07:02:22Z</time>
      </trkpt>
      <trkpt lat="43.29768" lon="2.27103">
        <ele>233.07</ele>
        <time>2021-09-14T07:02:26Z</time>
      </trkpt>
      <trkpt lat="43.29759" lon="2.27099">
        <ele>232.67</ele>
        <time>2021-09-14T07:02:30Z</time>
      </trkpt>
      <trkpt lat="43.29747" lon="2.27099">
        <ele>231.69</ele>
        <time>2021-09-14T07:02:35Z</time>
      </trkpt>
      <trkpt lat="43.29736" lon="2.27099">
        <ele>230.93</ele>
        <time>2021-09-14T07:02:39Z</time>
      </trkpt>
      <trkpt lat="43.29726" lon="2.271">
        <ele>230.42</ele>
        <time>2021-09-14T07:02:43Z</time>
      </trkpt>
      <trkpt lat="43.29716" lon="2.271">
        <ele>229.78</ele>
        <time>2021-09-14T07:02:47Z</time>
      </trkpt>
      <trkpt lat="43.29706" lon="2.27099">
        <ele>229.2</ele>
        <time>2021-09-14T07:02:51Z</time>
      </trkpt>
      <trkpt lat="43.29694" lon="2.27097">
        <ele>228.47</ele>
        <time>2021-09-14T07:02:56Z</time>
      </trkpt>
      <trkpt lat="43.29684" lon="2.27095">
        <ele>228.1</ele>
        <time>2021-09-14T07:03:00Z</time>
      </trkpt>
      <trkpt lat="43.29674" lon="2.27092">
        <ele>227.39</ele>
        <time>2021-09-14T07:03:04Z</time>
      </trkpt>
      <trkpt lat="43.29663" lon="2.27091">
        <ele>226.49</ele>
        <time>2021-09-14T07:03:09Z</time>
      </trkpt>
      <trkpt lat="43.29653" lon="2.2709">
        <ele>225.85</ele>
        <time>2021-09-14T07:03:13Z</time>
      </trkpt>
      <trkpt lat="43.29644" lon="2.27087">
        <ele>225.28</ele>
        <time>2021-09-14T07:03:17Z</time>
      </trkpt>
      <trkpt lat="43.29633" lon="2.27083">
        <ele>224.42</ele>
        <time>2021-09-14T07:03:22Z</time>
      </trkpt>
      <trkpt lat="43.29622" lon="2.27083">
        <ele>223.57</ele>
        <time>2021-09-14T07:03:27Z</time>
      </trkpt>
      <trkpt lat="43.29611" lon="2.2708">
        <ele>222.94</ele>
        <time>2021-09-14T07:03:32Z</time>
      </trkpt>
      <trkpt lat="43.296" lon="2.27077">
        <ele>222.26</ele>
        <time>2021-09-14T07:03:37Z</time>
      </trkpt>
      <trkpt lat="43.29588" lon="2.27073">
        <ele>221.37</ele>
        <time>2021-09-14T07:03:43Z</time>
      </trkpt>
      <trkpt lat="43.29578" lon="2.27071">
        <ele>220.6</ele>
        <time>2021-09-14T07:03:48Z</time>
      </trkpt>
      <trkpt lat="43.29566" lon="2.27071">
        <ele>219.72</ele>
        <time>2021-09-14T07:03:53Z</time>
      </trkpt>
      <trkpt lat="43.29553" lon="2.2707">
        <ele>218.89</ele>
        <time>2021-09-14T07:03:58Z</time>
      </trkpt>
      <trkpt lat="43.29539" lon="2.27072">
        <ele>217.89</ele>
        <time>2021-09-14T07:04:05Z</time>
      </trkpt>
      <trkpt lat="43.29526" lon="2.27069">
        <ele>217.85</ele>
        <time>2021-09-14T07:04:13Z</time>
      </trkpt>
      <trkpt lat="43.29514" lon="2.27068">
        <ele>217.61</ele>
        <time>2021-09-14T07:04:18Z</time>
      </trkpt>
      <trkpt lat="43.29501" lon="2.27067">
        <ele>217.05</ele>
        <time>2021-09-14T07:04:23Z</time>
      </trkpt>
      <trkpt lat="43.29489" lon="2.27065">
        <ele>216.3</ele>
        <time>2021-09-14T07:04:30Z</time>
      </trkpt>
      <trkpt lat="43.29478" lon="2.27062">
        <ele>215.96</ele>
        <time>2021-09-14T07:04:36Z</time>
      </trkpt>
      <trkpt lat="43.29464" lon="2.27059">
        <ele>215.24</ele>
        <time>2021-09-14T07:04:46Z</time>
      </trkpt>
      <trkpt lat="43.29454" lon="2.27057">
        <ele>214.72</ele>
        <time>2021-09-14T07:04:52Z</time>
      </trkpt>
      <trkpt lat="43.29443" lon="2.27053">
        <ele>214.24</ele>
        <time>2021-09-14T07:04:57Z</time>
      </trkpt>
      <trkpt lat="43.29433" lon="2.27048">
        <ele>213.85</ele>
        <time>2021-09-14T07:05:02Z</time>
      </trkpt>
      <trkpt lat="43.29426" lon="2.27046">
        <ele>213.52</ele>
        <time>2021-09-14T07:05:05Z</time>
      </trkpt>
      <trkpt lat="43.2942" lon="2.27044">
        <ele>213.08</ele>
        <time>2021-09-14T07:05:08Z</time>
      </trkpt>
      <trkpt lat="43.29408" lon="2.27039">
        <ele>212.18</ele>
        <time>2021-09-14T07:05:14Z</time>
      </trkpt>
      <trkpt lat="43.29395" lon="2.27035">
        <ele>211.71</ele>
        <time>2021-09-14T07:05:20Z</time>
      </trkpt>
      <trkpt lat="43.29385" lon="2.27033">
        <ele>211.16</ele>
        <time>2021-09-14T07:05:25Z</time>
      </trkpt>
      <trkpt lat="43.29373" lon="2.27029">
        <ele>210.69</ele>
        <time>2021-09-14T07:05:30Z</time>
      </trkpt>
      <trkpt lat="43.2936" lon="2.27026">
        <ele>209.91</ele>
        <time>2021-09-14T07:05:36Z</time>
      </trkpt>
      <trkpt lat="43.29348" lon="2.27023">
        <ele>209.27</ele>
        <time>2021-09-14T07:05:42Z</time>
      </trkpt>
      <trkpt lat="43.29336" lon="2.27021">
        <ele>208.48</ele>
        <time>2021-09-14T07:05:47Z</time>
      </trkpt>
      <trkpt lat="43.29325" lon="2.27018">
        <ele>208.07</ele>
        <time>2021-09-14T07:05:52Z</time>
      </trkpt>
      <trkpt lat="43.29313" lon="2.27018">
        <ele>207.27</ele>
        <time>2021-09-14T07:05:58Z</time>
      </trkpt>
      <trkpt lat="43.29299" lon="2.27016">
        <ele>206.18</ele>
        <time>2021-09-14T07:06:04Z</time>
      </trkpt>
      <trkpt lat="43.29288" lon="2.27015">
        <ele>205.48</ele>
        <time>2021-09-14T07:06:09Z</time>
      </trkpt>
      <trkpt lat="43.29276" lon="2.27013">
        <ele>204.72</ele>
        <time>2021-09-14T07:06:14Z</time>
      </trkpt>
      <trkpt lat="43.29263" lon="2.2701">
        <ele>204.12</ele>
        <time>2021-09-14T07:06:19Z</time>
      </trkpt>
      <trkpt lat="43.2925" lon="2.27007">
        <ele>203.3</ele>
        <time>2021-09-14T07:06:24Z</time>
      </trkpt>
      <trkpt lat="43.29237" lon="2.27002">
        <ele>202.75</ele>
        <time>2021-09-14T07:06:29Z</time>
      </trkpt>
      <trkpt lat="43.29223" lon="2.26998">
        <ele>202.24</ele>
        <time>2021-09-14T07:06:35Z</time>
      </trkpt>
      <trkpt lat="43.29211" lon="2.26992">
        <ele>201.61</ele>
        <time>2021-09-14T07:06:40Z</time>
      </trkpt>
      <trkpt lat="43.29198" lon="2.2699">
        <ele>201.05</ele>
        <time>2021-09-14T07:06:45Z</time>
      </trkpt>
      <trkpt lat="43.29187" lon="2.26987">
        <ele>200.18</ele>
        <time>2021-09-14T07:06:50Z</time>
      </trkpt>
      <trkpt lat="43.29174" lon="2.26981">
        <ele>199.53</ele>
        <time>2021-09-14T07:06:55Z</time>
      </trkpt>
      <trkpt lat="43.29163" lon="2.26977">
        <ele>198.9</ele>
        <time>2021-09-14T07:07:00Z</time>
      </trkpt>
      <trkpt lat="43.29152" lon="2.26972">
        <ele>198.35</ele>
        <time>2021-09-14T07:07:05Z</time>
      </trkpt>
      <trkpt lat="43.29139" lon="2.26967">
        <ele>197.88</ele>
        <time>2021-09-14T07:07:11Z</time>
      </trkpt>
      <trkpt lat="43.29126" lon="2.26964">
        <ele>197.09</ele>
        <time>2021-09-14T07:07:17Z</time>
      </trkpt>
      <trkpt lat="43.29113" lon="2.2696">
        <ele>196.19</ele>
        <time>2021-09-14T07:07:22Z</time>
      </trkpt>
      <trkpt lat="43.29099" lon="2.26954">
        <ele>195.17</ele>
        <time>2021-09-14T07:07:28Z</time>
      </trkpt>
      <trkpt lat="43.29084" lon="2.26946">
        <ele>194.12</ele>
        <time>2021-09-14T07:07:35Z</time>
      </trkpt>
      <trkpt lat="43.29066" lon="2.26937">
        <ele>192.74</ele>
        <time>2021-09-14T07:07:45Z</time>
      </trkpt>
      <trkpt lat="43.29049" lon="2.26931">
        <ele>191.46</ele>
        <time>2021-09-14T07:07:54Z</time>
      </trkpt>
      <trkpt lat="43.29032" lon="2.26924">
        <ele>190.21</ele>
        <time>2021-09-14T07:08:05Z</time>
      </trkpt>
      <trkpt lat="43.29015" lon="2.26908">
        <ele>188.89</ele>
        <time>2021-09-14T07:08:14Z</time>
      </trkpt>
      <trkpt lat="43.28998" lon="2.26896">
        <ele>187.68</ele>
        <time>2021-09-14T07:08:21Z</time>
      </trkpt>
      <trkpt lat="43.28985" lon="2.26882">
        <ele>186.46</ele>
        <time>2021-09-14T07:08:29Z</time>
      </trkpt>
      <trkpt lat="43.28968" lon="2.2687">
        <ele>184.68</ele>
        <time>2021-09-14T07:08:37Z</time>
      </trkpt>
      <trkpt lat="43.28953" lon="2.26861">
        <ele>183.46</ele>
        <time>2021-09-14T07:08:43Z</time>
      </trkpt>
      <trkpt lat="43.28939" lon="2.26851">
        <ele>182.39</ele>
        <time>2021-09-14T07:08:49Z</time>
      </trkpt>
      <trkpt lat="43.28928" lon="2.26844">
        <ele>181.23</ele>
        <time>2021-09-14T07:08:54Z</time>
      </trkpt>
      <trkpt lat="43.28916" lon="2.26834">
        <ele>180.1</ele>
        <time>2021-09-14T07:09:00Z</time>
      </trkpt>
      <trkpt lat="43.28904" lon="2.26822">
        <ele>179.45</ele>
        <time>2021-09-14T07:09:05Z</time>
      </trkpt>
      <trkpt lat="43.28893" lon="2.26814">
        <ele>178.9</ele>
        <time>2021-09-14T07:09:10Z</time>
      </trkpt>
      <trkpt lat="43.28879" lon="2.26808">
        <ele>178.04</ele>
        <time>2021-09-14T07:09:16Z</time>
      </trkpt>
      <trkpt lat="43.28864" lon="2.26801">
        <ele>177.24</ele>
        <time>2021-09-14T07:09:21Z</time>
      </trkpt>
      <trkpt lat="43.28851" lon="2.26793">
        <ele>176.42</ele>
        <time>2021-09-14T07:09:26Z</time>
      </trkpt>
      <trkpt lat="43.28839" lon="2.26787">
        <ele>175.69</ele>
        <time>2021-09-14T07:09:31Z</time>
      </trkpt>
      <trkpt lat="43.28829" lon="2.26783">
        <ele>175.28</ele>
        <time>2021-09-14T07:09:35Z</time>
      </trkpt>
      <trkpt lat="43.28818" lon="2.26781">
        <ele>174.85</ele>
        <time>2021-09-14T07:09:39Z</time>
      </trkpt>
      <trkpt lat="43.28807" lon="2.26777">
        <ele>174.37</ele>
        <time>2021-09-14T07:09:43Z</time>
      </trkpt>
      <trkpt lat="43.28797" lon="2.26774">
        <ele>173.66</ele>
        <time>2021-09-14T07:09:47Z</time>
      </trkpt>
      <trkpt lat="43.28788" lon="2.26769">
        <ele>172.86</ele>
        <time>2021-09-14T07:09:51Z</time>
      </trkpt>
      <trkpt lat="43.28777" lon="2.26765">
        <ele>171.91</ele>
        <time>2021-09-14T07:09:55Z</time>
      </trkpt>
      <trkpt lat="43.28765" lon="2.2676">
        <ele>171.01</ele>
        <time>2021-09-14T07:10:00Z</time>
      </trkpt>
      <trkpt lat="43.28754" lon="2.26757">
        <ele>170.09</ele>
        <time>2021-09-14T07:10:04Z</time>
      </trkpt>
      <trkpt lat="43.28744" lon="2.26756">
        <ele>169.6</ele>
        <time>2021-09-14T07:10:08Z</time>
      </trkpt>
      <trkpt lat="43.28731" lon="2.26756">
        <ele>168.72</ele>
        <time>2021-09-14T07:10:13Z</time>
      </trkpt>
      <trkpt lat="43.28718" lon="2.26755">
        <ele>167.79</ele>
        <time>2021-09-14T07:10:18Z</time>
      </trkpt>
      <trkpt lat="43.28708" lon="2.26755">
        <ele>167.4</ele>
        <time>2021-09-14T07:10:22Z</time>
      </trkpt>
      <trkpt lat="43.28698" lon="2.26753">
        <ele>166.97</ele>
        <time>2021-09-14T07:10:26Z</time>
      </trkpt>
      <trkpt lat="43.28687" lon="2.26749">
        <ele>166.2</ele>
        <time>2021-09-14T07:10:31Z</time>
      </trkpt>
      <trkpt lat="43.28674" lon="2.26743">
        <ele>165.18</ele>
        <time>2021-09-14T07:10:37Z</time>
      </trkpt>
      <trkpt lat="43.28663" lon="2.26739">
        <ele>164.63</ele>
        <time>2021-09-14T07:10:42Z</time>
      </trkpt>
      <trkpt lat="43.28649" lon="2.2674">
        <ele>163.82</ele>
        <time>2021-09-14T07:10:50Z</time>
      </trkpt>
      <trkpt lat="43.28639" lon="2.26741">
        <ele>163.56</ele>
        <time>2021-09-14T07:10:54Z</time>
      </trkpt>
      <trkpt lat="43.28628" lon="2.26744">
        <ele>162.7</ele>
        <time>2021-09-14T07:10:59Z</time>
      </trkpt>
      <trkpt lat="43.28617" lon="2.26747">
        <ele>161.62</ele>
        <time>2021-09-14T07:11:05Z</time>
      </trkpt>
      <trkpt lat="43.28605" lon="2.26753">
        <ele>160.58</ele>
        <time>2021-09-14T07:11:11Z</time>
      </trkpt>
      <trkpt lat="43.28593" lon="2.2676">
        <ele>159.83</ele>
        <time>2021-09-14T07:11:16Z</time>
      </trkpt>
      <trkpt lat="43.28581" lon="2.26765">
        <ele>158.83</ele>
        <time>2021-09-14T07:11:21Z</time>
      </trkpt>
      <trkpt lat="43.28576" lon="2.26766">
        <ele>158.24</ele>
        <time>2021-09-14T07:11:23Z</time>
      </trkpt>
      <trkpt lat="43.28567" lon="2.26767">
        <ele>157.37</ele>
        <time>2021-09-14T07:11:27Z</time>
      </trkpt>
      <trkpt lat="43.28555" lon="2.26767">
        <ele>156.27</ele>
        <time>2021-09-14T07:11:32Z</time>
      </trkpt>
      <trkpt lat="43.28543" lon="2.26765">
        <ele>155.16</ele>
        <time>2021-09-14T07:11:37Z</time>
      </trkpt>
      <trkpt lat="43.2853" lon="2.26764">
        <ele>153.94</ele>
        <time>2021-09-14T07:11:42Z</time>
      </trkpt>
      <trkpt lat="43.28516" lon="2.26769">
        <ele>152.24</ele>
        <time>2021-09-14T07:11:50Z</time>
      </trkpt>
      <trkpt lat="43.28504" lon="2.26775">
        <ele>151.15</ele>
        <time>2021-09-14T07:11:58Z</time>
      </trkpt>
      <trkpt lat="43.28492" lon="2.26781">
        <ele>149.74</ele>
        <time>2021-09-14T07:12:05Z</time>
      </trkpt>
      <trkpt lat="43.2848" lon="2.26787">
        <ele>147.92</ele>
        <time>2021-09-14T07:12:14Z</time>
      </trkpt>
      <trkpt lat="43.28468" lon="2.26781">
        <ele>145.81</ele>
        <time>2021-09-14T07:12:21Z</time>
      </trkpt>
      <trkpt lat="43.28454" lon="2.26774">
        <ele>143.95</ele>
        <time>2021-09-14T07:12:29Z</time>
      </trkpt>
      <trkpt lat="43.28448" lon="2.26764">
        <ele>143.65</ele>
        <time>2021-09-14T07:12:38Z</time>
      </trkpt>
      <trkpt lat="43.28457" lon="2.26754">
        <ele>145.07</ele>
        <time>2021-09-14T07:12:50Z</time>
      </trkpt>
      <trkpt lat="43.28469" lon="2.26749">
        <ele>146.14</ele>
        <time>2021-09-14T07:12:58Z</time>
      </trkpt>
      <trkpt lat="43.28484" lon="2.26742">
        <ele>147.21</ele>
        <time>2021-09-14T07:13:05Z</time>
      </trkpt>
      <trkpt lat="43.28493" lon="2.26732">
        <ele>147.85</ele>
        <time>2021-09-14T07:13:12Z</time>
      </trkpt>
      <trkpt lat="43.28501" lon="2.26721">
        <ele>148.91</ele>
        <time>2021-09-14T07:13:22Z</time>
      </trkpt>
      <trkpt lat="43.28513" lon="2.26708">
        <ele>149.65</ele>
        <time>2021-09-14T07:13:28Z</time>
      </trkpt>
      <trkpt lat="43.28523" lon="2.26697">
        <ele>150.37</ele>
        <time>2021-09-14T07:13:34Z</time>
      </trkpt>
      <trkpt lat="43.28537" lon="2.26685">
        <ele>151.19</ele>
        <time>2021-09-14T07:13:41Z</time>
      </trkpt>
      <trkpt lat="43.28549" lon="2.26676">
        <ele>151.92</ele>
        <time>2021-09-14T07:13:47Z</time>
      </trkpt>
      <trkpt lat="43.28557" lon="2.26662">
        <ele>152.74</ele>
        <time>2021-09-14T07:13:58Z</time>
      </trkpt>
      <trkpt lat="43.28569" lon="2.26648">
        <ele>153.25</ele>
        <time>2021-09-14T07:14:09Z</time>
      </trkpt>
      <trkpt lat="43.28581" lon="2.2664">
        <ele>153.72</ele>
        <time>2021-09-14T07:14:16Z</time>
      </trkpt>
      <trkpt lat="43.28589" lon="2.26632">
        <ele>154.74</ele>
        <time>2021-09-14T07:14:24Z</time>
      </trkpt>
      <trkpt lat="43.28599" lon="2.26625">
        <ele>155.25</ele>
        <time>2021-09-14T07:14:33Z</time>
      </trkpt>
      <trkpt lat="43.28605" lon="2.2661">
        <ele>155.71</ele>
        <time>2021-09-14T07:14:40Z</time>
      </trkpt>
      <trkpt lat="43.2861" lon="2.26594">
        <ele>156.09</ele>
        <time>2021-09-14T07:14:46Z</time>
      </trkpt>
      <trkpt lat="43.28613" lon="2.26577">
        <ele>156.83</ele>
        <time>2021-09-14T07:14:52Z</time>
      </trkpt>
      <trkpt lat="43.28616" lon="2.26562">
        <ele>157.35</ele>
        <time>2021-09-14T07:14:57Z</time>
      </trkpt>
      <trkpt lat="43.28616" lon="2.26545">
        <ele>157.73</ele>
        <time>2021-09-14T07:15:03Z</time>
      </trkpt>
      <trkpt lat="43.28617" lon="2.26526">
        <ele>158.22</ele>
        <time>2021-09-14T07:15:09Z</time>
      </trkpt>
      <trkpt lat="43.28615" lon="2.26508">
        <ele>158.36</ele>
        <time>2021-09-14T07:15:15Z</time>
      </trkpt>
      <trkpt lat="43.28615" lon="2.26488">
        <ele>158.4</ele>
        <time>2021-09-14T07:15:23Z</time>
      </trkpt>
      <trkpt lat="43.28616" lon="2.26466">
        <ele>158.25</ele>
        <time>2021-09-14T07:15:32Z</time>
      </trkpt>
      <trkpt lat="43.28619" lon="2.26444">
        <ele>158.3</ele>
        <time>2021-09-14T07:15:39Z</time>
      </trkpt>
      <trkpt lat="43.28612" lon="2.26433">
        <ele>158.96</ele>
        <time>2021-09-14T07:15:47Z</time>
      </trkpt>
      <trkpt lat="43.28601" lon="2.26421">
        <ele>159.81</ele>
        <time>2021-09-14T07:15:53Z</time>
      </trkpt>
      <trkpt lat="43.28591" lon="2.26415">
        <ele>160.65</ele>
        <time>2021-09-14T07:15:58Z</time>
      </trkpt>
      <trkpt lat="43.28583" lon="2.26407">
        <ele>161.1</ele>
        <time>2021-09-14T07:16:03Z</time>
      </trkpt>
      <trkpt lat="43.28573" lon="2.264">
        <ele>161.58</ele>
        <time>2021-09-14T07:16:08Z</time>
      </trkpt>
      <trkpt lat="43.28565" lon="2.26395">
        <ele>161.97</ele>
        <time>2021-09-14T07:16:13Z</time>
      </trkpt>
      <trkpt lat="43.28556" lon="2.26388">
        <ele>162.31</ele>
        <time>2021-09-14T07:16:19Z</time>
      </trkpt>
      <trkpt lat="43.28546" lon="2.26381">
        <ele>162.87</ele>
        <time>2021-09-14T07:16:24Z</time>
      </trkpt>
      <trkpt lat="43.28536" lon="2.26375">
        <ele>163.42</ele>
        <time>2021-09-14T07:16:29Z</time>
      </trkpt>
      <trkpt lat="43.28526" lon="2.26369">
        <ele>163.87</ele>
        <time>2021-09-14T07:16:34Z</time>
      </trkpt>
      <trkpt lat="43.28517" lon="2.2636">
        <ele>164.23</ele>
        <time>2021-09-14T07:16:39Z</time>
      </trkpt>
      <trkpt lat="43.28506" lon="2.26349">
        <ele>164.53</ele>
        <time>2021-09-14T07:16:44Z</time>
      </trkpt>
      <trkpt lat="43.28496" lon="2.26338">
        <ele>164.85</ele>
        <time>2021-09-14T07:16:49Z</time>
      </trkpt>
      <trkpt lat="43.28486" lon="2.26329">
        <ele>164.91</ele>
        <time>2021-09-14T07:16:54Z</time>
      </trkpt>
      <trkpt lat="43.28478" lon="2.26319">
        <ele>165.05</ele>
        <time>2021-09-14T07:17:00Z</time>
      </trkpt>
      <trkpt lat="43.28468" lon="2.2631">
        <ele>165.15</ele>
        <time>2021-09-14T07:17:05Z</time>
      </trkpt>
      <trkpt lat="43.28457" lon="2.26303">
        <ele>165.79</ele>
        <time>2021-09-14T07:17:11Z</time>
      </trkpt>
      <trkpt lat="43.28447" lon="2.26296">
        <ele>166.47</ele>
        <time>2021-09-14T07:17:16Z</time>
      </trkpt>
      <trkpt lat="43.28437" lon="2.26288">
        <ele>166.93</ele>
        <time>2021-09-14T07:17:21Z</time>
      </trkpt>
      <trkpt lat="43.28427" lon="2.2628">
        <ele>167.93</ele>
        <time>2021-09-14T07:17:27Z</time>
      </trkpt>
      <trkpt lat="43.28414" lon="2.26271">
        <ele>168.92</ele>
        <time>2021-09-14T07:17:33Z</time>
      </trkpt>
      <trkpt lat="43.28403" lon="2.26264">
        <ele>170.08</ele>
        <time>2021-09-14T07:17:39Z</time>
      </trkpt>
      <trkpt lat="43.28394" lon="2.26257">
        <ele>171.03</ele>
        <time>2021-09-14T07:17:44Z</time>
      </trkpt>
      <trkpt lat="43.28384" lon="2.26248">
        <ele>172.02</ele>
        <time>2021-09-14T07:17:50Z</time>
      </trkpt>
      <trkpt lat="43.28373" lon="2.26242">
        <ele>172.82</ele>
        <time>2021-09-14T07:17:57Z</time>
      </trkpt>
      <trkpt lat="43.28359" lon="2.26235">
        <ele>173.4</ele>
        <time>2021-09-14T07:18:03Z</time>
      </trkpt>
      <trkpt lat="43.28347" lon="2.2623">
        <ele>174.57</ele>
        <time>2021-09-14T07:18:12Z</time>
      </trkpt>
      <trkpt lat="43.28334" lon="2.2623">
        <ele>175.17</ele>
        <time>2021-09-14T07:18:26Z</time>
      </trkpt>
      <trkpt lat="43.28319" lon="2.26231">
        <ele>175.47</ele>
        <time>2021-09-14T07:18:37Z</time>
      </trkpt>
      <trkpt lat="43.28306" lon="2.26231">
        <ele>175.6</ele>
        <time>2021-09-14T07:18:48Z</time>
      </trkpt>
      <trkpt lat="43.28289" lon="2.26233">
        <ele>175.65</ele>
        <time>2021-09-14T07:19:00Z</time>
      </trkpt>
      <trkpt lat="43.28276" lon="2.26239">
        <ele>175.38</ele>
        <time>2021-09-14T07:19:10Z</time>
      </trkpt>
      <trkpt lat="43.2826" lon="2.26243">
        <ele>175.65</ele>
        <time>2021-09-14T07:19:22Z</time>
      </trkpt>
      <trkpt lat="43.2824" lon="2.26244">
        <ele>174.59</ele>
        <time>2021-09-14T07:19:33Z</time>
      </trkpt>
      <trkpt lat="43.28234" lon="2.26244">
        <ele>174.14</ele>
        <time>2021-09-14T07:19:36Z</time>
      </trkpt>
      <trkpt lat="43.28225" lon="2.26244">
        <ele>173.55</ele>
        <time>2021-09-14T07:19:40Z</time>
      </trkpt>
      <trkpt lat="43.28215" lon="2.2624">
        <ele>172.71</ele>
        <time>2021-09-14T07:19:46Z</time>
      </trkpt>
      <trkpt lat="43.28201" lon="2.26238">
        <ele>171.61</ele>
        <time>2021-09-14T07:19:52Z</time>
      </trkpt>
      <trkpt lat="43.28188" lon="2.26237">
        <ele>170.55</ele>
        <time>2021-09-14T07:19:57Z</time>
      </trkpt>
      <trkpt lat="43.28175" lon="2.26235">
        <ele>169.29</ele>
        <time>2021-09-14T07:20:02Z</time>
      </trkpt>
      <trkpt lat="43.2816" lon="2.26231">
        <ele>167.84</ele>
        <time>2021-09-14T07:20:07Z</time>
      </trkpt>
      <trkpt lat="43.28148" lon="2.26231">
        <ele>166.69</ele>
        <time>2021-09-14T07:20:12Z</time>
      </trkpt>
      <trkpt lat="43.28135" lon="2.2623">
        <ele>165.45</ele>
        <time>2021-09-14T07:20:17Z</time>
      </trkpt>
      <trkpt lat="43.28123" lon="2.2623">
        <ele>164.36</ele>
        <time>2021-09-14T07:20:22Z</time>
      </trkpt>
      <trkpt lat="43.28111" lon="2.26231">
        <ele>163.49</ele>
        <time>2021-09-14T07:20:27Z</time>
      </trkpt>
      <trkpt lat="43.281" lon="2.26233">
        <ele>162.61</ele>
        <time>2021-09-14T07:20:31Z</time>
      </trkpt>
      <trkpt lat="43.2809" lon="2.26235">
        <ele>161.53</ele>
        <time>2021-09-14T07:20:35Z</time>
      </trkpt>
      <trkpt lat="43.28078" lon="2.26237">
        <ele>160.3</ele>
        <time>2021-09-14T07:20:40Z</time>
      </trkpt>
      <trkpt lat="43.28066" lon="2.26239">
        <ele>159.07</ele>
        <time>2021-09-14T07:20:45Z</time>
      </trkpt>
      <trkpt lat="43.28054" lon="2.26242">
        <ele>157.53</ele>
        <time>2021-09-14T07:20:53Z</time>
      </trkpt>
      <trkpt lat="43.2804" lon="2.2625">
        <ele>156.85</ele>
        <time>2021-09-14T07:21:09Z</time>
      </trkpt>
      <trkpt lat="43.28025" lon="2.26249">
        <ele>155.88</ele>
        <time>2021-09-14T07:21:19Z</time>
      </trkpt>
      <trkpt lat="43.28014" lon="2.26247">
        <ele>155.04</ele>
        <time>2021-09-14T07:21:24Z</time>
      </trkpt>
      <trkpt lat="43.28001" lon="2.26246">
        <ele>154.42</ele>
        <time>2021-09-14T07:21:29Z</time>
      </trkpt>
      <trkpt lat="43.2799" lon="2.26245">
        <ele>154.04</ele>
        <time>2021-09-14T07:21:33Z</time>
      </trkpt>
      <trkpt lat="43.2798" lon="2.26244">
        <ele>153.62</ele>
        <time>2021-09-14T07:21:37Z</time>
      </trkpt>
      <trkpt lat="43.27968" lon="2.26243">
        <ele>153.23</ele>
        <time>2021-09-14T07:21:42Z</time>
      </trkpt>
      <trkpt lat="43.27957" lon="2.26242">
        <ele>152.61</ele>
        <time>2021-09-14T07:21:47Z</time>
      </trkpt>
      <trkpt lat="43.27945" lon="2.26241">
        <ele>151.78</ele>
        <time>2021-09-14T07:21:52Z</time>
      </trkpt>
      <trkpt lat="43.27933" lon="2.26241">
        <ele>151.07</ele>
        <time>2021-09-14T07:21:57Z</time>
      </trkpt>
      <trkpt lat="43.27921" lon="2.26239">
        <ele>150.41</ele>
        <time>2021-09-14T07:22:02Z</time>
      </trkpt>
      <trkpt lat="43.27909" lon="2.26236">
        <ele>149.85</ele>
        <time>2021-09-14T07:22:07Z</time>
      </trkpt>
      <trkpt lat="43.27895" lon="2.26235">
        <ele>148.97</ele>
        <time>2021-09-14T07:22:12Z</time>
      </trkpt>
      <trkpt lat="43.27883" lon="2.26233">
        <ele>148.36</ele>
        <time>2021-09-14T07:22:17Z</time>
      </trkpt>
      <trkpt lat="43.27872" lon="2.2623">
        <ele>147.98</ele>
        <time>2021-09-14T07:22:22Z</time>
      </trkpt>
      <trkpt lat="43.2786" lon="2.2623">
        <ele>147.35</ele>
        <time>2021-09-14T07:22:27Z</time>
      </trkpt>
      <trkpt lat="43.27846" lon="2.26231">
        <ele>146.87</ele>
        <time>2021-09-14T07:22:32Z</time>
      </trkpt>
      <trkpt lat="43.27834" lon="2.26231">
        <ele>146.09</ele>
        <time>2021-09-14T07:22:37Z</time>
      </trkpt>
      <trkpt lat="43.2782" lon="2.26231">
        <ele>145.32</ele>
        <time>2021-09-14T07:22:42Z</time>
      </trkpt>
      <trkpt lat="43.27809" lon="2.26231">
        <ele>144.89</ele>
        <time>2021-09-14T07:22:46Z</time>
      </trkpt>
      <trkpt lat="43.27799" lon="2.26232">
        <ele>144.4</ele>
        <time>2021-09-14T07:22:50Z</time>
      </trkpt>
      <trkpt lat="43.27786" lon="2.26234">
        <ele>143.57</ele>
        <time>2021-09-14T07:22:55Z</time>
      </trkpt>
      <trkpt lat="43.27775" lon="2.26235">
        <ele>142.67</ele>
        <time>2021-09-14T07:22:59Z</time>
      </trkpt>
      <trkpt lat="43.27765" lon="2.26235">
        <ele>141.75</ele>
        <time>2021-09-14T07:23:03Z</time>
      </trkpt>
      <trkpt lat="43.27751" lon="2.26234">
        <ele>140.87</ele>
        <time>2021-09-14T07:23:08Z</time>
      </trkpt>
      <trkpt lat="43.2774" lon="2.26235">
        <ele>140.1</ele>
        <time>2021-09-14T07:23:13Z</time>
      </trkpt>
      <trkpt lat="43.27727" lon="2.26235">
        <ele>139.4</ele>
        <time>2021-09-14T07:23:18Z</time>
      </trkpt>
      <trkpt lat="43.27716" lon="2.26237">
        <ele>138.92</ele>
        <time>2021-09-14T07:23:22Z</time>
      </trkpt>
      <trkpt lat="43.27704" lon="2.2624">
        <ele>137.9</ele>
        <time>2021-09-14T07:23:27Z</time>
      </trkpt>
      <trkpt lat="43.27692" lon="2.26245">
        <ele>137.34</ele>
        <time>2021-09-14T07:23:32Z</time>
      </trkpt>
      <trkpt lat="43.27681" lon="2.2625">
        <ele>136.75</ele>
        <time>2021-09-14T07:23:39Z</time>
      </trkpt>
      <trkpt lat="43.27671" lon="2.26256">
        <ele>136.65</ele>
        <time>2021-09-14T07:23:47Z</time>
      </trkpt>
      <trkpt lat="43.27661" lon="2.2626">
        <ele>136.28</ele>
        <time>2021-09-14T07:23:53Z</time>
      </trkpt>
      <trkpt lat="43.27651" lon="2.26261">
        <ele>135.57</ele>
        <time>2021-09-14T07:23:57Z</time>
      </trkpt>
      <trkpt lat="43.2764" lon="2.26266">
        <ele>134.35</ele>
        <time>2021-09-14T07:24:04Z</time>
      </trkpt>
      <trkpt lat="43.27631" lon="2.26276">
        <ele>133.64</ele>
        <time>2021-09-14T07:24:11Z</time>
      </trkpt>
      <trkpt lat="43.27622" lon="2.26287">
        <ele>133.05</ele>
        <time>2021-09-14T07:24:17Z</time>
      </trkpt>
      <trkpt lat="43.27613" lon="2.26297">
        <ele>132.38</ele>
        <time>2021-09-14T07:24:23Z</time>
      </trkpt>
      <trkpt lat="43.27602" lon="2.26311">
        <ele>131.68</ele>
        <time>2021-09-14T07:24:28Z</time>
      </trkpt>
      <trkpt lat="43.27592" lon="2.26324">
        <ele>131.07</ele>
        <time>2021-09-14T07:24:32Z</time>
      </trkpt>
      <trkpt lat="43.27584" lon="2.26333">
        <ele>130.62</ele>
        <time>2021-09-14T07:24:36Z</time>
      </trkpt>
      <trkpt lat="43.27575" lon="2.26342">
        <ele>130.11</ele>
        <time>2021-09-14T07:24:41Z</time>
      </trkpt>
      <trkpt lat="43.27565" lon="2.26353">
        <ele>129.93</ele>
        <time>2021-09-14T07:24:47Z</time>
      </trkpt>
      <trkpt lat="43.27551" lon="2.2636">
        <ele>129.55</ele>
        <time>2021-09-14T07:24:55Z</time>
      </trkpt>
      <trkpt lat="43.27534" lon="2.26371">
        <ele>129.05</ele>
        <time>2021-09-14T07:25:04Z</time>
      </trkpt>
      <trkpt lat="43.27523" lon="2.26368">
        <ele>128.43</ele>
        <time>2021-09-14T07:25:16Z</time>
      </trkpt>
      <trkpt lat="43.27515" lon="2.26354">
        <ele>128.27</ele>
        <time>2021-09-14T07:25:25Z</time>
      </trkpt>
      <trkpt lat="43.2751" lon="2.26339">
        <ele>128.51</ele>
        <time>2021-09-14T07:25:34Z</time>
      </trkpt>
      <trkpt lat="43.27503" lon="2.26323">
        <ele>129.34</ele>
        <time>2021-09-14T07:25:42Z</time>
      </trkpt>
      <trkpt lat="43.27495" lon="2.2631">
        <ele>130.64</ele>
        <time>2021-09-14T07:25:50Z</time>
      </trkpt>
      <trkpt lat="43.27485" lon="2.263">
        <ele>132.24</ele>
        <time>2021-09-14T07:25:58Z</time>
      </trkpt>
      <trkpt lat="43.27469" lon="2.26294">
        <ele>133.45</ele>
        <time>2021-09-14T07:26:05Z</time>
      </trkpt>
      <trkpt lat="43.27451" lon="2.26284">
        <ele>133.84</ele>
        <time>2021-09-14T07:26:12Z</time>
      </trkpt>
      <trkpt lat="43.27438" lon="2.26282">
        <ele>133.86</ele>
        <time>2021-09-14T07:26:17Z</time>
      </trkpt>
      <trkpt lat="43.27426" lon="2.26277">
        <ele>133.95</ele>
        <time>2021-09-14T07:26:22Z</time>
      </trkpt>
      <trkpt lat="43.27415" lon="2.2627">
        <ele>134.2</ele>
        <time>2021-09-14T07:26:35Z</time>
      </trkpt>
      <trkpt lat="43.27408" lon="2.26263">
        <ele>134.42</ele>
        <time>2021-09-14T07:26:47Z</time>
      </trkpt>
      <trkpt lat="43.27404" lon="2.2626">
        <ele>134.12</ele>
        <time>2021-09-14T07:26:50Z</time>
      </trkpt>
      <trkpt lat="43.27394" lon="2.26254">
        <ele>133.73</ele>
        <time>2021-09-14T07:26:55Z</time>
      </trkpt>
      <trkpt lat="43.27384" lon="2.26248">
        <ele>133.51</ele>
        <time>2021-09-14T07:27:00Z</time>
      </trkpt>
      <trkpt lat="43.27374" lon="2.26243">
        <ele>133.14</ele>
        <time>2021-09-14T07:27:05Z</time>
      </trkpt>
      <trkpt lat="43.27363" lon="2.26236">
        <ele>132.76</ele>
        <time>2021-09-14T07:27:10Z</time>
      </trkpt>
      <trkpt lat="43.27351" lon="2.26229">
        <ele>132.32</ele>
        <time>2021-09-14T07:27:15Z</time>
      </trkpt>
      <trkpt lat="43.2734" lon="2.26222">
        <ele>131.87</ele>
        <time>2021-09-14T07:27:20Z</time>
      </trkpt>
      <trkpt lat="43.27331" lon="2.26233">
        <ele>131.83</ele>
        <time>2021-09-14T07:27:35Z</time>
      </trkpt>
      <trkpt lat="43.27324" lon="2.26243">
        <ele>131.41</ele>
        <time>2021-09-14T07:27:40Z</time>
      </trkpt>
      <trkpt lat="43.27318" lon="2.26253">
        <ele>130.81</ele>
        <time>2021-09-14T07:27:49Z</time>
      </trkpt>
      <trkpt lat="43.27311" lon="2.26265">
        <ele>130.73</ele>
        <time>2021-09-14T07:27:58Z</time>
      </trkpt>
      <trkpt lat="43.27304" lon="2.26276">
        <ele>130.59</ele>
        <time>2021-09-14T07:28:06Z</time>
      </trkpt>
      <trkpt lat="43.27294" lon="2.26291">
        <ele>129.49</ele>
        <time>2021-09-14T07:28:16Z</time>
      </trkpt>
      <trkpt lat="43.27287" lon="2.26303">
        <ele>129.24</ele>
        <time>2021-09-14T07:28:22Z</time>
      </trkpt>
      <trkpt lat="43.2728" lon="2.26316">
        <ele>128.88</ele>
        <time>2021-09-14T07:28:27Z</time>
      </trkpt>
      <trkpt lat="43.27273" lon="2.26327">
        <ele>128.33</ele>
        <time>2021-09-14T07:28:32Z</time>
      </trkpt>
      <trkpt lat="43.27266" lon="2.26339">
        <ele>127.3</ele>
        <time>2021-09-14T07:28:38Z</time>
      </trkpt>
      <trkpt lat="43.27259" lon="2.2635">
        <ele>126.76</ele>
        <time>2021-09-14T07:28:43Z</time>
      </trkpt>
      <trkpt lat="43.27252" lon="2.26362">
        <ele>126.56</ele>
        <time>2021-09-14T07:28:48Z</time>
      </trkpt>
      <trkpt lat="43.27245" lon="2.26374">
        <ele>126.27</ele>
        <time>2021-09-14T07:28:53Z</time>
      </trkpt>
      <trkpt lat="43.27239" lon="2.26385">
        <ele>125.66</ele>
        <time>2021-09-14T07:28:58Z</time>
      </trkpt>
      <trkpt lat="43.27231" lon="2.26397">
        <ele>125.28</ele>
        <time>2021-09-14T07:29:03Z</time>
      </trkpt>
      <trkpt lat="43.27224" lon="2.2641">
        <ele>124.88</ele>
        <time>2021-09-14T07:29:08Z</time>
      </trkpt>
      <trkpt lat="43.27217" lon="2.26423">
        <ele>124.48</ele>
        <time>2021-09-14T07:29:13Z</time>
      </trkpt>
      <trkpt lat="43.27207" lon="2.26436">
        <ele>124.29</ele>
        <time>2021-09-14T07:29:18Z</time>
      </trkpt>
      <trkpt lat="43.272" lon="2.26447">
        <ele>124.05</ele>
        <time>2021-09-14T07:29:22Z</time>
      </trkpt>
      <trkpt lat="43.27191" lon="2.26458">
        <ele>123.63</ele>
        <time>2021-09-14T07:29:27Z</time>
      </trkpt>
      <trkpt lat="43.27183" lon="2.2647">
        <ele>123.14</ele>
        <time>2021-09-14T07:29:32Z</time>
      </trkpt>
      <trkpt lat="43.27175" lon="2.26482">
        <ele>122.57</ele>
        <time>2021-09-14T07:29:37Z</time>
      </trkpt>
      <trkpt lat="43.27168" lon="2.26496">
        <ele>122.05</ele>
        <time>2021-09-14T07:29:43Z</time>
      </trkpt>
      <trkpt lat="43.27163" lon="2.26524">
        <ele>120.51</ele>
        <time>2021-09-14T07:29:58Z</time>
      </trkpt>
      <trkpt lat="43.27145" lon="2.26541">
        <ele>118.24</ele>
        <time>2021-09-14T07:30:09Z</time>
      </trkpt>
      <trkpt lat="43.27125" lon="2.26553">
        <ele>116.23</ele>
        <time>2021-09-14T07:30:18Z</time>
      </trkpt>
      <trkpt lat="43.27101" lon="2.26559">
        <ele>114.39</ele>
        <time>2021-09-14T07:30:26Z</time>
      </trkpt>
      <trkpt lat="43.27079" lon="2.26557">
        <ele>113.02</ele>
        <time>2021-09-14T07:30:34Z</time>
      </trkpt>
      <trkpt lat="43.27064" lon="2.26559">
        <ele>112.11</ele>
        <time>2021-09-14T07:30:39Z</time>
      </trkpt>
      <trkpt lat="43.27049" lon="2.26563">
        <ele>111.41</ele>
        <time>2021-09-14T07:30:44Z</time>
      </trkpt>
      <trkpt lat="43.27026" lon="2.26568">
        <ele>109.36</ele>
        <time>2021-09-14T07:30:55Z</time>
      </trkpt>
      <trkpt lat="43.27016" lon="2.26598">
        <ele>108.87</ele>
        <time>2021-09-14T07:31:10Z</time>
      </trkpt>
      <trkpt lat="43.26999" lon="2.26633">
        <ele>110.22</ele>
        <time>2021-09-14T07:31:26Z</time>
      </trkpt>
      <trkpt lat="43.26982" lon="2.26664">
        <ele>112.09</ele>
        <time>2021-09-14T07:31:40Z</time>
      </trkpt>
      <trkpt lat="43.26967" lon="2.26695">
        <ele>112.27</ele>
        <time>2021-09-14T07:31:50Z</time>
      </trkpt>
      <trkpt lat="43.2696" lon="2.26706">
        <ele>111.94</ele>
        <time>2021-09-14T07:31:54Z</time>
      </trkpt>
      <trkpt lat="43.26952" lon="2.26721">
        <ele>111.89</ele>
        <time>2021-09-14T07:32:00Z</time>
      </trkpt>
      <trkpt lat="43.26938" lon="2.26761">
        <ele>112.19</ele>
        <time>2021-09-14T07:32:15Z</time>
      </trkpt>
      <trkpt lat="43.26932" lon="2.26779">
        <ele>112.35</ele>
        <time>2021-09-14T07:32:21Z</time>
      </trkpt>
      <trkpt lat="43.26924" lon="2.26796">
        <ele>112.12</ele>
        <time>2021-09-14T07:32:27Z</time>
      </trkpt>
      <trkpt lat="43.26916" lon="2.26823">
        <ele>111.42</ele>
        <time>2021-09-14T07:32:36Z</time>
      </trkpt>
      <trkpt lat="43.26906" lon="2.26865">
        <ele>111.9</ele>
        <time>2021-09-14T07:32:53Z</time>
      </trkpt>
      <trkpt lat="43.26899" lon="2.26901">
        <ele>111.97</ele>
        <time>2021-09-14T07:33:04Z</time>
      </trkpt>
      <trkpt lat="43.26887" lon="2.26948">
        <ele>111.51</ele>
        <time>2021-09-14T07:33:18Z</time>
      </trkpt>
      <trkpt lat="43.26881" lon="2.26986">
        <ele>111.24</ele>
        <time>2021-09-14T07:33:30Z</time>
      </trkpt>
      <trkpt lat="43.26875" lon="2.27015">
        <ele>110.71</ele>
        <time>2021-09-14T07:33:38Z</time>
      </trkpt>
      <trkpt lat="43.26866" lon="2.27043">
        <ele>110.5</ele>
        <time>2021-09-14T07:33:47Z</time>
      </trkpt>
      <trkpt lat="43.26857" lon="2.27064">
        <ele>110.59</ele>
        <time>2021-09-14T07:33:54Z</time>
      </trkpt>
      <trkpt lat="43.2685" lon="2.27081">
        <ele>110.79</ele>
        <time>2021-09-14T07:33:59Z</time>
      </trkpt>
      <trkpt lat="43.26843" lon="2.27096">
        <ele>110.68</ele>
        <time>2021-09-14T07:34:04Z</time>
      </trkpt>
      <trkpt lat="43.26834" lon="2.27109">
        <ele>110.38</ele>
        <time>2021-09-14T07:34:09Z</time>
      </trkpt>
      <trkpt lat="43.26817" lon="2.27137">
        <ele>109.85</ele>
        <time>2021-09-14T07:34:21Z</time>
      </trkpt>
      <trkpt lat="43.26808" lon="2.27157">
        <ele>109.32</ele>
        <time>2021-09-14T07:34:27Z</time>
      </trkpt>
      <trkpt lat="43.26797" lon="2.27176">
        <ele>108.52</ele>
        <time>2021-09-14T07:34:33Z</time>
      </trkpt>
      <trkpt lat="43.26787" lon="2.2719">
        <ele>107.99</ele>
        <time>2021-09-14T07:34:38Z</time>
      </trkpt>
      <trkpt lat="43.26778" lon="2.27204">
        <ele>107.72</ele>
        <time>2021-09-14T07:34:43Z</time>
      </trkpt>
      <trkpt lat="43.26767" lon="2.27218">
        <ele>107.35</ele>
        <time>2021-09-14T07:34:48Z</time>
      </trkpt>
      <trkpt lat="43.26758" lon="2.27232">
        <ele>106.69</ele>
        <time>2021-09-14T07:34:53Z</time>
      </trkpt>
      <trkpt lat="43.26747" lon="2.27245">
        <ele>106.29</ele>
        <time>2021-09-14T07:34:58Z</time>
      </trkpt>
      <trkpt lat="43.26735" lon="2.27257">
        <ele>105.9</ele>
        <time>2021-09-14T07:35:03Z</time>
      </trkpt>
      <trkpt lat="43.26723" lon="2.2727">
        <ele>105.13</ele>
        <time>2021-09-14T07:35:09Z</time>
      </trkpt>
      <trkpt lat="43.26706" lon="2.27294">
        <ele>103.93</ele>
        <time>2021-09-14T07:35:22Z</time>
      </trkpt>
      <trkpt lat="43.26697" lon="2.27313">
        <ele>103.41</ele>
        <time>2021-09-14T07:35:35Z</time>
      </trkpt>
      <trkpt lat="43.26686" lon="2.27333">
        <ele>103.15</ele>
        <time>2021-09-14T07:35:41Z</time>
      </trkpt>
      <trkpt lat="43.26679" lon="2.27347">
        <ele>102.86</ele>
        <time>2021-09-14T07:35:46Z</time>
      </trkpt>
      <trkpt lat="43.26672" lon="2.27363">
        <ele>102.67</ele>
        <time>2021-09-14T07:35:52Z</time>
      </trkpt>
      <trkpt lat="43.26665" lon="2.27378">
        <ele>102.49</ele>
        <time>2021-09-14T07:35:58Z</time>
      </trkpt>
      <trkpt lat="43.26657" lon="2.27391">
        <ele>102.3</ele>
        <time>2021-09-14T07:36:03Z</time>
      </trkpt>
      <trkpt lat="43.2665" lon="2.27403">
        <ele>102.2</ele>
        <time>2021-09-14T07:36:08Z</time>
      </trkpt>
      <trkpt lat="43.26644" lon="2.27417">
        <ele>102.08</ele>
        <time>2021-09-14T07:36:13Z</time>
      </trkpt>
      <trkpt lat="43.26636" lon="2.27433">
        <ele>101.95</ele>
        <time>2021-09-14T07:36:18Z</time>
      </trkpt>
      <trkpt lat="43.2663" lon="2.27447">
        <ele>101.81</ele>
        <time>2021-09-14T07:36:23Z</time>
      </trkpt>
      <trkpt lat="43.26625" lon="2.27462">
        <ele>101.9</ele>
        <time>2021-09-14T07:36:28Z</time>
      </trkpt>
      <trkpt lat="43.26621" lon="2.27479">
        <ele>101.92</ele>
        <time>2021-09-14T07:36:33Z</time>
      </trkpt>
      <trkpt lat="43.26616" lon="2.27493">
        <ele>101.98</ele>
        <time>2021-09-14T07:36:37Z</time>
      </trkpt>
      <trkpt lat="43.26609" lon="2.27511">
        <ele>102.22</ele>
        <time>2021-09-14T07:36:42Z</time>
      </trkpt>
      <trkpt lat="43.26604" lon="2.27522">
        <ele>102.32</ele>
        <time>2021-09-14T07:36:46Z</time>
      </trkpt>
      <trkpt lat="43.26598" lon="2.27536">
        <ele>102.29</ele>
        <time>2021-09-14T07:36:51Z</time>
      </trkpt>
      <trkpt lat="43.26592" lon="2.27549">
        <ele>102.17</ele>
        <time>2021-09-14T07:36:56Z</time>
      </trkpt>
      <trkpt lat="43.26588" lon="2.27564">
        <ele>101.65</ele>
        <time>2021-09-14T07:37:04Z</time>
      </trkpt>
      <trkpt lat="43.26583" lon="2.27573">
        <ele>100.42</ele>
        <time>2021-09-14T07:37:18Z</time>
      </trkpt>
      <trkpt lat="43.26579" lon="2.27619">
        <ele>96.66</ele>
        <time>2021-09-14T07:37:44Z</time>
      </trkpt>
      <trkpt lat="43.26582" lon="2.27646">
        <ele>96.08</ele>
        <time>2021-09-14T07:38:00Z</time>
      </trkpt>
      <trkpt lat="43.26583" lon="2.27633">
        <ele>98.11</ele>
        <time>2021-09-14T07:38:15Z</time>
      </trkpt>
      <trkpt lat="43.26588" lon="2.27618">
        <ele>100.06</ele>
        <time>2021-09-14T07:38:30Z</time>
      </trkpt>
      <trkpt lat="43.26582" lon="2.27591">
        <ele>101.39</ele>
        <time>2021-09-14T07:38:43Z</time>
      </trkpt>
      <trkpt lat="43.26569" lon="2.27583">
        <ele>100.92</ele>
        <time>2021-09-14T07:38:48Z</time>
      </trkpt>
      <trkpt lat="43.26559" lon="2.27578">
        <ele>100.14</ele>
        <time>2021-09-14T07:38:52Z</time>
      </trkpt>
      <trkpt lat="43.26547" lon="2.27571">
        <ele>98.57</ele>
        <time>2021-09-14T07:38:57Z</time>
      </trkpt>
      <trkpt lat="43.26534" lon="2.27564">
        <ele>97.26</ele>
        <time>2021-09-14T07:39:02Z</time>
      </trkpt>
      <trkpt lat="43.26522" lon="2.2756">
        <ele>96.33</ele>
        <time>2021-09-14T07:39:06Z</time>
      </trkpt>
      <trkpt lat="43.26512" lon="2.27556">
        <ele>95.35</ele>
        <time>2021-09-14T07:39:10Z</time>
      </trkpt>
      <trkpt lat="43.265" lon="2.27551">
        <ele>94.42</ele>
        <time>2021-09-14T07:39:14Z</time>
      </trkpt>
      <trkpt lat="43.26489" lon="2.27546">
        <ele>93.67</ele>
        <time>2021-09-14T07:39:18Z</time>
      </trkpt>
      <trkpt lat="43.26482" lon="2.27536">
        <ele>92.8</ele>
        <time>2021-09-14T07:39:23Z</time>
      </trkpt>
      <trkpt lat="43.26477" lon="2.27524">
        <ele>92.45</ele>
        <time>2021-09-14T07:39:32Z</time>
      </trkpt>
      <trkpt lat="43.26469" lon="2.27522">
        <ele>91</ele>
        <time>2021-09-14T07:39:56Z</time>
      </trkpt>
      <trkpt lat="43.26459" lon="2.27521">
        <ele>90.91</ele>
        <time>2021-09-14T07:40:17Z</time>
      </trkpt>
      <trkpt lat="43.2645" lon="2.27522">
        <ele>90.55</ele>
        <time>2021-09-14T07:40:26Z</time>
      </trkpt>
      <trkpt lat="43.26434" lon="2.27526">
        <ele>90.08</ele>
        <time>2021-09-14T07:40:39Z</time>
      </trkpt>
      <trkpt lat="43.26424" lon="2.27537">
        <ele>89.95</ele>
        <time>2021-09-14T07:40:51Z</time>
      </trkpt>
      <trkpt lat="43.26423" lon="2.27552">
        <ele>90.12</ele>
        <time>2021-09-14T07:41:03Z</time>
      </trkpt>
      <trkpt lat="43.26446" lon="2.27583">
        <ele>91.1</ele>
        <time>2021-09-14T07:41:22Z</time>
      </trkpt>
      <trkpt lat="43.26459" lon="2.27597">
        <ele>91.99</ele>
        <time>2021-09-14T07:41:30Z</time>
      </trkpt>
      <trkpt lat="43.26468" lon="2.27617">
        <ele>92.96</ele>
        <time>2021-09-14T07:41:37Z</time>
      </trkpt>
      <trkpt lat="43.26478" lon="2.27631">
        <ele>94.03</ele>
        <time>2021-09-14T07:41:43Z</time>
      </trkpt>
      <trkpt lat="43.26488" lon="2.27643">
        <ele>95.07</ele>
        <time>2021-09-14T07:41:48Z</time>
      </trkpt>
      <trkpt lat="43.26498" lon="2.27654">
        <ele>96.48</ele>
        <time>2021-09-14T07:41:53Z</time>
      </trkpt>
      <trkpt lat="43.26505" lon="2.27661">
        <ele>97.73</ele>
        <time>2021-09-14T07:41:56Z</time>
      </trkpt>
      <trkpt lat="43.26509" lon="2.27667">
        <ele>98.09</ele>
        <time>2021-09-14T07:41:58Z</time>
      </trkpt>
      <trkpt lat="43.26514" lon="2.27681">
        <ele>99.78</ele>
        <time>2021-09-14T07:42:03Z</time>
      </trkpt>
      <trkpt lat="43.26521" lon="2.27693">
        <ele>101.31</ele>
        <time>2021-09-14T07:42:08Z</time>
      </trkpt>
      <trkpt lat="43.26527" lon="2.27705">
        <ele>102.45</ele>
        <time>2021-09-14T07:42:13Z</time>
      </trkpt>
      <trkpt lat="43.26536" lon="2.27713">
        <ele>103.99</ele>
        <time>2021-09-14T07:42:20Z</time>
      </trkpt>
      <trkpt lat="43.26544" lon="2.27726">
        <ele>105.64</ele>
        <time>2021-09-14T07:42:32Z</time>
      </trkpt>
      <trkpt lat="43.26554" lon="2.27785">
        <ele>105.6</ele>
        <time>2021-09-14T07:42:57Z</time>
      </trkpt>
      <trkpt lat="43.26557" lon="2.27801">
        <ele>105.63</ele>
        <time>2021-09-14T07:43:02Z</time>
      </trkpt>
      <trkpt lat="43.26563" lon="2.2783">
        <ele>106.51</ele>
        <time>2021-09-14T07:43:18Z</time>
      </trkpt>
      <trkpt lat="43.26567" lon="2.27857">
        <ele>106.91</ele>
        <time>2021-09-14T07:43:27Z</time>
      </trkpt>
      <trkpt lat="43.26569" lon="2.27872">
        <ele>107.07</ele>
        <time>2021-09-14T07:43:32Z</time>
      </trkpt>
      <trkpt lat="43.26583" lon="2.27927">
        <ele>108.04</ele>
        <time>2021-09-14T07:43:53Z</time>
      </trkpt>
      <trkpt lat="43.26587" lon="2.27939">
        <ele>107.83</ele>
        <time>2021-09-14T07:43:58Z</time>
      </trkpt>
      <trkpt lat="43.2659" lon="2.27953">
        <ele>107.16</ele>
        <time>2021-09-14T07:44:03Z</time>
      </trkpt>
      <trkpt lat="43.26595" lon="2.27967">
        <ele>106.06</ele>
        <time>2021-09-14T07:44:08Z</time>
      </trkpt>
      <trkpt lat="43.26598" lon="2.27981">
        <ele>104.68</ele>
        <time>2021-09-14T07:44:12Z</time>
      </trkpt>
      <trkpt lat="43.26601" lon="2.27994">
        <ele>103.45</ele>
        <time>2021-09-14T07:44:16Z</time>
      </trkpt>
      <trkpt lat="43.26601" lon="2.28008">
        <ele>102.08</ele>
        <time>2021-09-14T07:44:20Z</time>
      </trkpt>
      <trkpt lat="43.26601" lon="2.28022">
        <ele>100.91</ele>
        <time>2021-09-14T07:44:24Z</time>
      </trkpt>
      <trkpt lat="43.26601" lon="2.28035">
        <ele>100.08</ele>
        <time>2021-09-14T07:44:28Z</time>
      </trkpt>
      <trkpt lat="43.266" lon="2.28048">
        <ele>99.11</ele>
        <time>2021-09-14T07:44:32Z</time>
      </trkpt>
      <trkpt lat="43.26601" lon="2.28062">
        <ele>97.87</ele>
        <time>2021-09-14T07:44:38Z</time>
      </trkpt>
      <trkpt lat="43.26599" lon="2.28084">
        <ele>97.5</ele>
        <time>2021-09-14T07:44:55Z</time>
      </trkpt>
      <trkpt lat="43.26598" lon="2.28102">
        <ele>97.37</ele>
        <time>2021-09-14T07:45:15Z</time>
      </trkpt>
      <trkpt lat="43.26599" lon="2.28112">
        <ele>97.01</ele>
        <time>2021-09-14T07:45:21Z</time>
      </trkpt>
      <trkpt lat="43.26592" lon="2.28139">
        <ele>96.55</ele>
        <time>2021-09-14T07:45:32Z</time>
      </trkpt>
      <trkpt lat="43.26593" lon="2.28152">
        <ele>96.74</ele>
        <time>2021-09-14T07:45:37Z</time>
      </trkpt>
      <trkpt lat="43.26593" lon="2.28169">
        <ele>96.87</ele>
        <time>2021-09-14T07:45:43Z</time>
      </trkpt>
      <trkpt lat="43.26593" lon="2.28194">
        <ele>96.53</ele>
        <time>2021-09-14T07:45:52Z</time>
      </trkpt>
      <trkpt lat="43.26595" lon="2.28213">
        <ele>96.45</ele>
        <time>2021-09-14T07:46:00Z</time>
      </trkpt>
      <trkpt lat="43.26605" lon="2.28222">
        <ele>98.06</ele>
        <time>2021-09-14T07:46:23Z</time>
      </trkpt>
      <trkpt lat="43.2661" lon="2.28234">
        <ele>98.3</ele>
        <time>2021-09-14T07:46:43Z</time>
      </trkpt>
      <trkpt lat="43.26608" lon="2.2824">
        <ele>98.3</ele>
        <time>2021-09-14T07:47:03Z</time>
      </trkpt>
      <trkpt lat="43.266" lon="2.28239">
        <ele>98.61</ele>
        <time>2021-09-14T07:47:29Z</time>
      </trkpt>
      <trkpt lat="43.26591" lon="2.28234">
        <ele>99</ele>
        <time>2021-09-14T07:48:01Z</time>
      </trkpt>
      <trkpt lat="43.26592" lon="2.28247">
        <ele>98.81</ele>
        <time>2021-09-14T07:48:18Z</time>
      </trkpt>
      <trkpt lat="43.26594" lon="2.28267">
        <ele>98.84</ele>
        <time>2021-09-14T07:48:30Z</time>
      </trkpt>
      <trkpt lat="43.26597" lon="2.28281">
        <ele>99.1</ele>
        <time>2021-09-14T07:48:36Z</time>
      </trkpt>
      <trkpt lat="43.26598" lon="2.28318">
        <ele>100.34</ele>
        <time>2021-09-14T07:48:52Z</time>
      </trkpt>
      <trkpt lat="43.26601" lon="2.28337">
        <ele>101.84</ele>
        <time>2021-09-14T07:49:02Z</time>
      </trkpt>
      <trkpt lat="43.26607" lon="2.28361">
        <ele>103.99</ele>
        <time>2021-09-14T07:49:17Z</time>
      </trkpt>
      <trkpt lat="43.26604" lon="2.28382">
        <ele>106.02</ele>
        <time>2021-09-14T07:49:31Z</time>
      </trkpt>
      <trkpt lat="43.26603" lon="2.28406">
        <ele>107.63</ele>
        <time>2021-09-14T07:49:43Z</time>
      </trkpt>
      <trkpt lat="43.26589" lon="2.28433">
        <ele>107.59</ele>
        <time>2021-09-14T07:49:56Z</time>
      </trkpt>
      <trkpt lat="43.26575" lon="2.28436">
        <ele>107.3</ele>
        <time>2021-09-14T07:50:06Z</time>
      </trkpt>
      <trkpt lat="43.26564" lon="2.2845">
        <ele>107.42</ele>
        <time>2021-09-14T07:50:17Z</time>
      </trkpt>
      <trkpt lat="43.26547" lon="2.28473">
        <ele>107.53</ele>
        <time>2021-09-14T07:50:29Z</time>
      </trkpt>
      <trkpt lat="43.26533" lon="2.28491">
        <ele>107.66</ele>
        <time>2021-09-14T07:50:36Z</time>
      </trkpt>
      <trkpt lat="43.26524" lon="2.28503">
        <ele>107.64</ele>
        <time>2021-09-14T07:50:41Z</time>
      </trkpt>
      <trkpt lat="43.26516" lon="2.28517">
        <ele>107.45</ele>
        <time>2021-09-14T07:50:46Z</time>
      </trkpt>
      <trkpt lat="43.26512" lon="2.28532">
        <ele>107.38</ele>
        <time>2021-09-14T07:50:51Z</time>
      </trkpt>
      <trkpt lat="43.26504" lon="2.28544">
        <ele>107.38</ele>
        <time>2021-09-14T07:50:55Z</time>
      </trkpt>
      <trkpt lat="43.265" lon="2.28557">
        <ele>107.48</ele>
        <time>2021-09-14T07:51:00Z</time>
      </trkpt>
      <trkpt lat="43.26492" lon="2.2857">
        <ele>107.33</ele>
        <time>2021-09-14T07:51:05Z</time>
      </trkpt>
      <trkpt lat="43.26485" lon="2.2858">
        <ele>107.23</ele>
        <time>2021-09-14T07:51:09Z</time>
      </trkpt>
      <trkpt lat="43.26479" lon="2.28592">
        <ele>107.14</ele>
        <time>2021-09-14T07:51:14Z</time>
      </trkpt>
      <trkpt lat="43.26472" lon="2.28602">
        <ele>107</ele>
        <time>2021-09-14T07:51:19Z</time>
      </trkpt>
      <trkpt lat="43.26466" lon="2.28614">
        <ele>106.99</ele>
        <time>2021-09-14T07:51:24Z</time>
      </trkpt>
      <trkpt lat="43.26461" lon="2.28628">
        <ele>107.48</ele>
        <time>2021-09-14T07:51:29Z</time>
      </trkpt>
      <trkpt lat="43.26456" lon="2.28647">
        <ele>107.35</ele>
        <time>2021-09-14T07:51:34Z</time>
      </trkpt>
      <trkpt lat="43.26448" lon="2.28666">
        <ele>106.85</ele>
        <time>2021-09-14T07:51:47Z</time>
      </trkpt>
      <trkpt lat="43.26441" lon="2.28678">
        <ele>106.41</ele>
        <time>2021-09-14T07:51:59Z</time>
      </trkpt>
      <trkpt lat="43.26436" lon="2.28687">
        <ele>106.36</ele>
        <time>2021-09-14T07:52:07Z</time>
      </trkpt>
      <trkpt lat="43.26433" lon="2.2871">
        <ele>106.4</ele>
        <time>2021-09-14T07:52:18Z</time>
      </trkpt>
      <trkpt lat="43.26423" lon="2.28725">
        <ele>106.38</ele>
        <time>2021-09-14T07:52:44Z</time>
      </trkpt>
      <trkpt lat="43.26423" lon="2.2874">
        <ele>105.86</ele>
        <time>2021-09-14T07:53:13Z</time>
      </trkpt>
      <trkpt lat="43.26416" lon="2.28752">
        <ele>105.85</ele>
        <time>2021-09-14T07:53:33Z</time>
      </trkpt>
      <trkpt lat="43.26414" lon="2.28757">
        <ele>82.97</ele>
        <time>2021-09-14T07:53:50Z</time>
      </trkpt>
    </trkseg>
  </trk>
</gpx>